Ticket #758: nmea_20110120.nmea

File nmea_20110120.nmea, 71.5 KB (added by perepujal, 11 years ago)
Line 
1$PGLOR,STA,091544.00,1.209,0.000,-1234,1,5,1,PWR,D,N*46
2$PGLOR,SIO,TxERR,0,RxERR,0,TxCNT,120,RxCNT,1576,DTMS,1000,DTIN,1,DTOUT,435*4C
3$GPGSA,A,3,03,06,16,18,19,22,24,,,,,,1.1,0.5,1.0*33
4$PGLOR,FIX,1.0*3E
5$GPRMC,091544.00,A,4222.297983,N,00148.459184,E,043.1,102.2,200111,,*3A
6$GPGGA,091545.00,4222.294902,N,00148.474416,E,1,07,0.5,1076.0,M,,M,,*47
7$PGLOR,STA,091545.00,1.209,0.000,-1235,1,5,1,PWR,D,N*46
8$PGLOR,SIO,TxERR,0,RxERR,0,TxCNT,124,RxCNT,1516,DTMS,1000,DTIN,1,DTOUT,435*4E
9$GPGSA,A,3,03,06,16,18,19,22,24,,,,,,1.1,0.5,1.0*33
10$PGLOR,FIX,1.0*3E
11$GPRMC,091545.00,A,4222.294902,N,00148.474416,E,043.0,107.7,200111,,*31
12$GPGGA,091546.00,4222.290453,N,00148.489037,E,1,07,0.5,1076.0,M,,M,,*4C
13$PGLOR,STA,091546.00,1.209,0.000,-1235,1,5,1,PWR,D,N*45
14$PGLOR,SIO,TxERR,0,RxERR,0,TxCNT,96,RxCNT,1468,DTMS,1000,DTIN,0,DTOUT,435*7F
15$GPGSA,A,3,03,06,16,18,19,22,24,,,,,,1.1,0.5,1.0*33
16$PGLOR,FIX,1.0*3E
17$GPRMC,091546.00,A,4222.290453,N,00148.489037,E,043.1,114.8,200111,,*36
18$GPGGA,091547.00,4222.285089,N,00148.503137,E,1,07,0.5,1077.0,M,,M,,*49
19$PGLOR,STA,091547.00,1.209,0.000,-1234,1,5,3,PWR,D,N*47
20$PGLOR,SIO,TxERR,0,RxERR,0,TxCNT,208,RxCNT,1560,DTMS,1001,DTIN,1,DTOUT,435*43
21$GPGSV,3,1,12,03,80,109,47,06,66,108,48,19,62,315,45,22,56,082,46*7A
22$GPGSV,3,2,12,18,29,050,47,16,28,178,44,24,19,252,39,11,16,266,*78
23$GPGSV,3,3,12,30,11,170,,07,07,283,,08,07,314,,14,07,121,*7F
24$GPGSA,A,3,03,06,16,18,19,22,24,,,,,,1.1,0.5,1.0*33
25$PGLOR,FIX,1.0*3E
26$GPRMC,091547.00,A,4222.285089,N,00148.503137,E,043.0,119.0,200111,,*36
27$GPGGA,091548.00,4222.279269,N,00148.517006,E,1,07,0.5,1077.0,M,,M,,*4F
28$PGLOR,STA,091548.00,1.209,0.000,-1234,1,5,3,PWR,D,N*48
29$PGLOR,SIO,TxERR,0,RxERR,0,TxCNT,192,RxCNT,1740,DTMS,999,DTIN,1,DTOUT,435*7A
30$GPGSA,A,3,03,06,16,18,19,22,24,,,,,,1.1,0.5,1.0*33
31$PGLOR,FIX,1.0*3E
32$GPRMC,091548.00,A,4222.279269,N,00148.517006,E,043.0,120.6,200111,,*3C
33$GPGGA,091549.00,4222.273352,N,00148.530983,E,1,07,0.5,1077.0,M,,M,,*4C
34$PGLOR,STA,091549.00,1.209,0.000,-1234,1,5,3,PWR,D,N*49
35$PGLOR,SIO,TxERR,0,RxERR,0,TxCNT,220,RxCNT,2020,DTMS,1002,DTIN,1,DTOUT,435*48
36$GPGSA,A,3,03,06,16,18,19,22,24,,,,,,1.1,0.5,1.0*33
37$PGLOR,FIX,1.0*3E
38$GPRMC,091549.00,A,4222.273352,N,00148.530983,E,043.0,120.2,200111,,*3B
39$GPGGA,091550.00,4222.267589,N,00148.545185,E,1,08,1.0,1078.0,M,,M,,*49
40$PGLOR,STA,091550.00,1.209,0.000,-1234,1,10,3,PWR,D,N*75
41$PGLOR,SIO,TxERR,0,RxERR,0,TxCNT,240,RxCNT,1388,DTMS,1000,DTIN,2,DTOUT,435*4D
42$GPGSA,A,3,03,06,07,16,18,19,22,24,,,,,2.2,1.0,2.0*33
43$PGLOR,FIX,1.0*3E
44$GPRMC,091550.00,A,4222.267589,N,00148.545185,E,043.1,118.4,200111,,*36
45$GPGGA,091551.00,4222.262271,N,00148.559630,E,1,08,0.5,1078.0,M,,M,,*4D
46$PGLOR,STA,091551.00,1.209,0.000,-1232,1,5,3,PWR,D,N*46
47$PGLOR,SIO,TxERR,0,RxERR,0,TxCNT,96,RxCNT,1640,DTMS,1001,DTIN,0,DTOUT,435*76
48$GPGSA,A,3,03,06,07,16,18,19,22,24,,,,,1.1,0.5,1.0*34
49$PGLOR,FIX,1.0*3E
50$GPRMC,091551.00,A,4222.262271,N,00148.559630,E,043.1,115.8,200111,,*37
51$GPGGA,091552.00,4222.257700,N,00148.574545,E,1,08,0.5,1078.0,M,,M,,*45
52$PGLOR,STA,091552.00,1.209,0.000,-1232,1,5,3,PWR,D,N*45
53$PGLOR,SIO,TxERR,0,RxERR,0,TxCNT,136,RxCNT,1744,DTMS,999,DTIN,1,DTOUT,435*70
54$GPGSV,3,1,12,03,80,109,47,06,66,108,48,19,62,315,46,22,56,082,47*78
55$GPGSV,3,2,12,18,29,050,47,16,28,178,46,24,19,252,39,07,07,283,37*72
56$GPGSV,3,3,12,11,16,266,,30,11,170,,08,07,314,,14,07,121,*73
57$GPGSA,A,3,03,06,07,16,18,19,22,24,,,,,1.1,0.5,1.0*34
58$PGLOR,FIX,1.0*3E
59$GPRMC,091552.00,A,4222.257700,N,00148.574545,E,043.1,111.1,200111,,*32
60$GPGGA,091553.00,4222.254272,N,00148.590014,E,1,07,0.5,1078.0,M,,M,,*43
61$PGLOR,STA,091553.00,1.209,0.000,-1232,1,5,1,PWR,D,N*46
62$PGLOR,SIO,TxERR,0,RxERR,0,TxCNT,204,RxCNT,1584,DTMS,998,DTIN,1,DTOUT,435*7D
63$GPGSA,A,3,03,06,07,16,18,19,22,24,,,,,1.1,0.5,1.0*34
64$PGLOR,FIX,1.0*3E
65$GPRMC,091553.00,A,4222.254272,N,00148.590014,E,043.2,104.5,200111,,*38
66$GPGGA,091554.00,4222.252193,N,00148.605863,E,1,07,0.5,1078.0,M,,M,,*49
67$PGLOR,STA,091554.00,1.209,0.000,-1231,1,5,1,PWR,D,N*42
68$PGLOR,SIO,TxERR,0,RxERR,0,TxCNT,124,RxCNT,1804,DTMS,1000,DTIN,1,DTOUT,435*40
69$GPGSA,A,3,03,06,07,16,18,19,22,24,,,,,1.1,0.5,1.0*34
70$PGLOR,FIX,1.0*3E
71$GPRMC,091554.00,A,4222.252193,N,00148.605863,E,043.1,097.6,200111,,*39
72$GPGGA,091555.00,4222.251344,N,00148.622070,E,1,08,0.5,1079.0,M,,M,,*42
73$PGLOR,STA,091555.00,1.209,0.000,-1231,1,5,1,PWR,D,N*43
74$PGLOR,SIO,TxERR,0,RxERR,0,TxCNT,244,RxCNT,1436,DTMS,1002,DTIN,2,DTOUT,435*49
75$GPGSA,A,3,03,06,07,16,18,19,22,24,,,,,1.1,0.5,1.0*34
76$PGLOR,FIX,1.0*3E
77$GPRMC,091555.00,A,4222.251344,N,00148.622070,E,043.5,091.4,200111,,*3C
78$GPGGA,091556.00,4222.251511,N,00148.638433,E,1,08,0.5,1079.0,M,,M,,*4F
79$PGLOR,STA,091556.00,1.209,0.000,-1231,1,5,1,PWR,D,N*40
80$PGLOR,SIO,TxERR,0,RxERR,0,TxCNT,116,RxCNT,1340,DTMS,1003,DTIN,1,DTOUT,435*49
81$GPGSA,A,3,03,06,07,16,18,19,22,24,,,,,1.1,0.5,1.0*34
82$PGLOR,FIX,1.0*3E
83$GPRMC,091556.00,A,4222.251511,N,00148.638433,E,043.8,085.9,200111,,*34
84$GPGGA,091557.00,4222.253522,N,00148.654746,E,1,08,0.5,1079.0,M,,M,,*47
85$PGLOR,STA,091557.00,1.209,0.000,-1231,1,5,1,PWR,D,N*41
86$PGLOR,SIO,TxERR,0,RxERR,0,TxCNT,136,RxCNT,1504,DTMS,999,DTIN,1,DTOUT,435*76
87$GPGSV,3,1,12,03,80,109,47,06,66,108,48,19,62,315,45,22,56,082,46*7A
88$GPGSV,3,2,12,18,29,050,47,16,28,178,46,24,19,252,39,07,07,283,31*74
89$GPGSV,3,3,12,11,16,266,,30,11,170,,08,07,314,,14,07,121,*73
90$GPGSA,A,3,03,06,07,16,18,19,22,24,,,,,1.1,0.5,1.0*34
91$PGLOR,FIX,1.0*3E
92$GPRMC,091557.00,A,4222.253522,N,00148.654746,E,044.1,077.4,200111,,*32
93$GPGGA,091558.00,4222.257106,N,00148.670868,E,1,07,1.0,1079.0,M,,M,,*40
94$PGLOR,STA,091558.00,1.209,0.000,-1230,1,10,1,PWR,D,N*7B
95$PGLOR,SIO,TxERR,0,RxERR,0,TxCNT,220,RxCNT,1376,DTMS,996,DTIN,1,DTOUT,435*7E
96$GPGSA,A,3,03,06,07,16,18,19,22,24,,,,,2.2,1.0,2.0*33
97$PGLOR,FIX,1.0*3E
98$GPRMC,091558.00,A,4222.257106,N,00148.670868,E,044.7,070.9,200111,,*32
99$GPGGA,091559.00,4222.262154,N,00148.686509,E,1,07,1.0,1079.0,M,,M,,*43
100$PGLOR,STA,091559.00,1.209,0.000,-1229,1,10,1,PWR,D,N*72
101$PGLOR,SIO,TxERR,0,RxERR,0,TxCNT,192,RxCNT,1520,DTMS,1000,DTIN,1,DTOUT,435*46
102$GPGSA,A,3,03,06,07,16,18,19,22,24,,,,,2.2,1.0,2.0*33
103$PGLOR,FIX,1.0*3E
104$GPRMC,091559.00,A,4222.262154,N,00148.686509,E,045.3,064.6,200111,,*3E
105$GPGGA,091600.00,4222.268167,N,00148.701659,E,1,07,0.5,1079.0,M,,M,,*4A
106$PGLOR,STA,091602.00,1.209,0.000,-1230,1,5,3,PWR,D,N*41
107$PGLOR,SIO,TxERR,0,RxERR,0,TxCNT,228,RxCNT,1580,DTMS,1003,DTIN,1,DTOUT,435*4D
108$GPGSV,3,1,12,03,80,109,44,06,66,108,48,19,62,315,44,22,56,082,46*78
109$GPGSV,3,2,12,18,29,050,47,16,28,178,45,24,19,252,39,11,16,266,*79
110$GPGSV,3,3,12,30,11,170,,07,07,283,,08,07,314,,14,07,121,*7F
111$GPGSA,A,3,03,06,16,18,19,22,24,,,,,,1.1,0.5,1.0*33
112$PGLOR,FIX,1.0*3E
113$GPRMC,091602.00,A,4222.283984,N,00148.730674,E,047.8,051.2,200111,,*37
114$GPGGA,091603.00,4222.292975,N,00148.744910,E,1,07,0.5,1079.0,M,,M,,*44
115$PGLOR,STA,091604.00,1.209,0.000,-1231,1,5,3,PWR,D,N*46
116$PGLOR,SIO,TxERR,0,RxERR,0,TxCNT,124,RxCNT,1504,DTMS,1001,DTIN,1,DTOUT,435*4C
117$GPGSA,A,3,03,06,16,18,19,22,24,,,,,,1.1,0.5,1.0*33
118$PGLOR,FIX,1.0*3E
119$GPRMC,091604.00,A,4222.302510,N,00148.758760,E,049.3,046.5,200111,,*36
120$GPGGA,091605.00,4222.312610,N,00148.772047,E,1,07,0.5,1079.0,M,,M,,*49
121$PGLOR,STA,091607.00,1.209,0.000,-1229,1,5,3,PWR,D,N*4C
122$PGLOR,SIO,TxERR,0,RxERR,0,TxCNT,204,RxCNT,1484,DTMS,1000,DTIN,1,DTOUT,435*45
123$GPGSV,3,1,12,03,80,109,44,06,66,108,48,19,63,315,44,22,56,081,46*7A
124$GPGSV,3,2,12,18,29,050,47,16,28,178,45,24,19,252,39,11,16,266,*79
125$GPGSV,3,3,12,30,11,170,,07,07,283,,08,07,314,,14,07,121,*7F
126$GPGSA,A,3,03,06,16,18,19,22,24,,,,,,1.1,0.5,1.0*33
127$PGLOR,FIX,1.0*3E
128$GPRMC,091607.00,A,4222.334021,N,00148.797160,E,050.0,039.5,200111,,*31
129$GPGGA,091608.00,4222.345160,N,00148.808998,E,1,07,0.5,1080.0,M,,M,,*49
130$PGLOR,STA,091609.00,1.209,0.000,-1229,1,5,3,PWR,D,N*42
131$PGLOR,SIO,TxERR,0,RxERR,0,TxCNT,276,RxCNT,1528,DTMS,1000,DTIN,1,DTOUT,435*47
132$GPGSA,A,3,03,06,16,18,19,22,24,,,,,,1.1,0.5,1.0*33
133$PGLOR,FIX,1.0*3E
134$GPRMC,091609.00,A,4222.356609,N,00148.820349,E,050.2,036.4,200111,,*31
135$GPGGA,091610.00,4222.368342,N,00148.831186,E,1,06,0.5,1080.0,M,,M,,*41
136$PGLOR,STA,091612.00,1.209,0.000,-1229,1,10,1,PWR,D,N*7E
137$PGLOR,SIO,TxERR,0,RxERR,0,TxCNT,180,RxCNT,1508,DTMS,1000,DTIN,1,DTOUT,435*4F
138$GPGSV,3,1,12,03,80,109,43,06,66,108,48,19,63,315,45,22,56,081,43*79
139$GPGSV,3,2,12,18,29,050,47,16,28,178,42,24,19,253,22,11,16,266,*75
140$GPGSV,3,3,12,30,11,170,,07,07,283,,08,07,314,,14,07,121,*7F
141$GPGSA,A,3,03,06,16,18,19,22,,,,,,,2.2,1.0,2.0*32
142$PGLOR,FIX,1.0*3E
143$GPRMC,091612.00,A,4222.392737,N,00148.850070,E,050.3,026.7,200111,,*32
144$GPGGA,091613.00,4222.405554,N,00148.857792,E,1,06,3.0,1081.0,M,,M,,*4B
145$PGLOR,STA,091614.00,1.209,0.000,-1229,1,5,3,PWR,D,N*4E
146$PGLOR,SIO,TxERR,0,RxERR,0,TxCNT,92,RxCNT,2164,DTMS,997,DTIN,1,DTOUT,435*46
147$GPGSA,A,3,03,06,16,18,19,22,,,,,,,1.1,0.5,1.0*35
148$PGLOR,FIX,1.0*3E
149$GPRMC,091614.00,A,4222.418721,N,00148.864337,E,050.4,020.0,200111,,*37
150$GPGGA,091615.00,4222.432207,N,00148.869897,E,1,05,0.5,1081.0,M,,M,,*4A
151$PGLOR,STA,091617.00,1.209,0.000,-1229,1,5,3,PWR,D,N*4D
152$PGLOR,SIO,TxERR,0,RxERR,0,TxCNT,168,RxCNT,2644,DTMS,1000,DTIN,2,DTOUT,435*42
153$GPGSV,3,1,12,06,66,108,48,19,63,315,46,22,56,081,47,18,29,050,49*70
154$GPGSV,3,2,12,16,28,178,42,03,80,109,16,24,19,253,,11,16,266,*75
155$GPGSV,3,3,12,30,10,170,,07,07,283,,08,07,314,,14,07,121,*7E
156$GPGSA,A,3,06,16,18,19,22,,,,,,,,1.1,0.5,1.0*36
157$PGLOR,FIX,1.0*3E
158$GPRMC,091617.00,A,4222.459742,N,00148.879274,E,050.8,014.1,200111,,*34
159$GPGGA,091618.00,4222.473578,N,00148.883690,E,1,06,0.5,1082.0,M,,M,,*40
160$PGLOR,STA,091619.00,1.209,0.000,-1229,1,5,3,PWR,D,N*43
161$PGLOR,SIO,TxERR,0,RxERR,0,TxCNT,328,RxCNT,1820,DTMS,1000,DTIN,1,DTOUT,435*48
162$GPGSA,A,3,03,06,16,18,19,22,24,,,,,,1.1,0.5,1.0*33
163$PGLOR,FIX,1.0*3E
164$GPRMC,091619.00,A,4222.487108,N,00148.889046,E,050.6,017.7,200111,,*36
165$GPGGA,091620.00,4222.500268,N,00148.895493,E,1,06,0.5,1082.0,M,,M,,*4E
166$PGLOR,STA,091622.00,1.209,0.000,-1230,1,10,1,PWR,D,N*75
167$PGLOR,SIO,TxERR,0,RxERR,0,TxCNT,96,RxCNT,1548,DTMS,998,DTIN,0,DTOUT,435*45
168$GPGSV,3,1,12,03,79,110,37,06,66,109,46,19,63,315,46,22,56,081,47*7C
169$GPGSV,3,2,12,18,29,050,49,16,28,178,41,11,16,266,30,24,19,253,*7B
170$GPGSV,3,3,12,30,10,170,,07,07,283,,08,07,314,,14,07,121,*7E
171$GPGSA,A,3,03,06,11,16,18,19,22,,,,,,2.2,1.0,2.0*32
172$PGLOR,FIX,1.0*3E
173$GPRMC,091622.00,A,4222.524730,N,00148.913191,E,050.2,033.1,200111,,*36
174$GPGGA,091623.00,4222.535565,N,00148.924851,E,1,07,0.5,1082.0,M,,M,,*49
175$PGLOR,STA,091624.00,1.209,0.000,-1228,1,5,3,PWR,D,N*4C
176$PGLOR,SIO,TxERR,0,RxERR,0,TxCNT,136,RxCNT,1672,DTMS,1000,DTIN,2,DTOUT,435*4F
177$GPGSA,A,3,03,06,11,16,18,19,22,,,,,,1.1,0.5,1.0*35
178$PGLOR,FIX,1.0*3E
179$GPRMC,091624.00,A,4222.545887,N,00148.937532,E,050.3,043.6,200111,,*3E
180$GPGGA,091625.00,4222.555962,N,00148.950893,E,1,07,0.5,1083.0,M,,M,,*4E
181$PGLOR,STA,091626.00,1.209,0.000,-1228,1,5,3,PWR,D,N*4E
182$PGLOR,SIO,TxERR,0,RxERR,0,TxCNT,204,RxCNT,1928,DTMS,1000,DTIN,1,DTOUT,435*4E
183$GPGSA,A,3,03,06,11,16,18,19,22,,,,,,1.1,0.5,1.0*35
184$PGLOR,FIX,1.0*3E
185$GPRMC,091626.00,A,4222.566128,N,00148.964428,E,051.1,045.4,200111,,*3A
186$GPGGA,091627.00,4222.576228,N,00148.978346,E,1,07,0.5,1084.0,M,,M,,*46
187$PGLOR,STA,091629.00,1.209,0.000,-1227,1,5,3,PWR,D,N*4E
188$PGLOR,SIO,TxERR,0,RxERR,0,TxCNT,124,RxCNT,1460,DTMS,999,DTIN,1,DTOUT,435*76
189$GPGSA,A,3,03,06,11,16,18,19,22,,,,,,1.1,0.5,1.0*35
190$PGLOR,FIX,1.0*3E
191$GPRMC,091629.00,A,4222.596230,N,00149.006852,E,051.7,046.4,200111,,*38
192$GPGGA,091630.00,4222.606281,N,00149.021146,E,1,07,0.5,1085.0,M,,M,,*40
193$PGLOR,STA,091631.00,1.209,0.000,-1227,1,5,3,PWR,D,N*47
194$PGLOR,SIO,TxERR,0,RxERR,0,TxCNT,72,RxCNT,1540,DTMS,1005,DTIN,0,DTOUT,435*7B
195$GPGSA,A,3,03,06,11,16,18,19,22,,,,,,1.1,0.5,1.0*35
196$PGLOR,FIX,1.0*3E
197$GPRMC,091631.00,A,4222.616376,N,00149.035366,E,052.1,045.9,200111,,*3E
198$GPGGA,091632.00,4222.626448,N,00149.049553,E,1,07,0.5,1085.0,M,,M,,*4D
199$PGLOR,STA,091634.00,1.209,0.000,-1226,1,5,3,PWR,D,N*43
200$PGLOR,SIO,TxERR,0,RxERR,0,TxCNT,84,RxCNT,1428,DTMS,1008,DTIN,0,DTOUT,435*70
201$GPGSA,A,3,03,06,11,16,18,19,22,,,,,,1.1,0.5,1.0*35
202$PGLOR,FIX,1.0*3E
203$GPRMC,091634.00,A,4222.646702,N,00149.078103,E,052.3,046.3,200111,,*3A
204$GPGGA,091635.00,4222.656671,N,00149.092553,E,1,07,0.5,1086.0,M,,M,,*40
205$PGLOR,STA,091636.00,1.209,0.000,-1226,1,5,3,PWR,D,N*41
206$PGLOR,SIO,TxERR,0,RxERR,0,TxCNT,96,RxCNT,1572,DTMS,1011,DTIN,0,DTOUT,435*75
207$GPGSA,A,3,03,06,11,16,18,19,22,,,,,,1.1,0.5,1.0*35
208$PGLOR,FIX,1.0*3E
209$GPRMC,091636.00,A,4222.666364,N,00149.107271,E,052.3,048.5,200111,,*39
210$GPGGA,091637.00,4222.675612,N,00149.122441,E,1,07,0.5,1086.0,M,,M,,*4E
211$PGLOR,STA,091639.00,1.209,0.000,-1226,1,5,3,PWR,D,N*4E
212$PGLOR,SIO,TxERR,0,RxERR,0,TxCNT,112,RxCNT,1316,DTMS,998,DTIN,1,DTOUT,435*74
213$GPGSA,A,3,03,06,11,14,16,18,19,22,,,,,1.1,0.5,1.0*30
214$PGLOR,FIX,1.0*3E
215$GPRMC,091639.00,A,4222.692429,N,00149.154194,E,052.1,056.1,200111,,*34
216$GPGGA,091640.00,4222.700288,N,00149.170444,E,1,08,0.5,1087.0,M,,M,,*46
217$PGLOR,STA,091641.00,1.209,0.000,-1226,1,5,3,PWR,D,N*41
218$PGLOR,SIO,TxERR,0,RxERR,0,TxCNT,136,RxCNT,1396,DTMS,1000,DTIN,1,DTOUT,435*43
219$GPGSA,A,3,03,06,11,14,16,18,19,22,,,,,1.1,0.5,1.0*30
220$PGLOR,FIX,1.0*3E
221$GPRMC,091641.00,A,4222.707826,N,00149.186889,E,051.9,058.6,200111,,*3D
222$GPGGA,091642.00,4222.715202,N,00149.203482,E,1,08,0.5,1087.0,M,,M,,*4F
223$PGLOR,STA,091644.00,1.209,0.000,-1225,1,5,3,PWR,D,N*47
224$PGLOR,SIO,TxERR,0,RxERR,0,TxCNT,104,RxCNT,1460,DTMS,1000,DTIN,1,DTOUT,435*4C
225$GPGSA,A,3,03,06,11,14,16,18,19,22,,,,,1.1,0.5,1.0*30
226$PGLOR,FIX,1.0*3E
227$GPRMC,091644.00,A,4222.730018,N,00149.237361,E,052.8,059.4,200111,,*3C
228$GPGGA,091645.00,4222.737482,N,00149.254678,E,1,08,0.5,1088.0,M,,M,,*4C
229$PGLOR,STA,091646.00,1.209,0.000,-1225,1,5,3,PWR,D,N*45
230$PGLOR,SIO,TxERR,0,RxERR,0,TxCNT,232,RxCNT,1320,DTMS,1000,DTIN,1,DTOUT,435*49
231$GPGSA,A,3,03,06,11,14,16,18,19,22,,,,,1.1,0.5,1.0*30
232$PGLOR,FIX,1.0*3E
233$GPRMC,091646.00,A,4222.744991,N,00149.272102,E,053.2,059.6,200111,,*3A
234$GPGGA,091647.00,4222.752630,N,00149.289385,E,1,08,0.5,1088.0,M,,M,,*41
235$PGLOR,STA,091649.00,1.209,0.000,-1225,1,5,3,PWR,D,N*4A
236$PGLOR,SIO,TxERR,0,RxERR,0,TxCNT,148,RxCNT,1508,DTMS,1000,DTIN,1,DTOUT,435*4B
237$GPGSA,A,3,03,06,11,14,16,18,19,22,,,,,1.1,0.5,1.0*30
238$PGLOR,FIX,1.0*3E
239$GPRMC,091649.00,A,4222.768037,N,00149.323619,E,052.9,057.8,200111,,*3C
240$GPGGA,091650.00,4222.775920,N,00149.340405,E,1,08,0.5,1089.0,M,,M,,*46
241$PGLOR,STA,091651.00,1.209,0.000,-1225,1,5,3,PWR,D,N*43
242$PGLOR,SIO,TxERR,0,RxERR,0,TxCNT,124,RxCNT,1612,DTMS,1000,DTIN,1,DTOUT,435*49
243$GPGSA,A,3,03,06,11,14,16,18,19,22,,,,,1.1,0.5,1.0*30
244$PGLOR,FIX,1.0*3E
245$GPRMC,091651.00,A,4222.784092,N,00149.356816,E,052.6,055.2,200111,,*3C
246$GPGGA,091652.00,4222.792914,N,00149.372638,E,1,08,0.5,1089.0,M,,M,,*47
247$PGLOR,STA,091654.00,1.209,0.000,-1225,1,5,3,PWR,D,N*46
248$PGLOR,SIO,TxERR,0,RxERR,0,TxCNT,136,RxCNT,1492,DTMS,1001,DTIN,1,DTOUT,435*41
249$GPGSA,A,3,03,06,11,14,16,18,19,22,,,,,1.1,0.5,1.0*30
250$PGLOR,FIX,1.0*3E
251$GPRMC,091654.00,A,4222.812446,N,00149.402399,E,052.9,046.2,200111,,*33
252$GPGGA,091655.00,4222.823116,N,00149.416144,E,1,08,0.5,1089.0,M,,M,,*46
253$PGLOR,STA,091656.00,1.209,0.000,-1225,1,10,3,PWR,D,N*70
254$PGLOR,SIO,TxERR,0,RxERR,0,TxCNT,320,RxCNT,1860,DTMS,1005,DTIN,2,DTOUT,435*42
255$GPGSA,A,3,03,06,11,14,16,18,19,22,,,,,2.2,1.0,2.0*37
256$PGLOR,FIX,1.0*3E
257$GPRMC,091656.00,A,4222.834418,N,00149.428879,E,052.8,039.2,200111,,*3A
258$GPGGA,091657.00,4222.845989,N,00149.441083,E,1,08,0.5,1089.0,M,,M,,*42
259$PGLOR,STA,091659.00,1.209,0.000,-1225,1,10,3,PWR,D,N*7F
260$PGLOR,SIO,TxERR,0,RxERR,0,TxCNT,96,RxCNT,1156,DTMS,1000,DTIN,0,DTOUT,435*77
261$GPGSA,A,3,03,06,11,14,16,18,19,22,,,,,2.2,1.0,2.0*37
262$PGLOR,FIX,1.0*3E
263$GPRMC,091659.00,A,4222.869766,N,00149.464147,E,052.5,035.0,200111,,*38
264$GPGGA,091700.00,4222.881524,N,00149.475526,E,1,08,1.0,1089.0,M,,M,,*4B
265$PGLOR,STA,091701.00,1.209,0.000,-1225,1,10,3,PWR,D,N*73
266$PGLOR,SIO,TxERR,0,RxERR,0,TxCNT,124,RxCNT,1192,DTMS,1003,DTIN,1,DTOUT,435*45
267$GPGSA,A,3,03,06,11,14,16,18,19,22,,,,,2.2,1.0,2.0*37
268$PGLOR,FIX,1.0*3E
269$GPRMC,091701.00,A,4222.893125,N,00149.486981,E,052.1,036.3,200111,,*3A
270$GPGGA,091702.00,4222.904873,N,00149.498017,E,1,08,0.5,1090.0,M,,M,,*42
271$PGLOR,STA,091704.00,1.209,0.000,-1225,1,5,3,PWR,D,N*42
272$PGLOR,SIO,TxERR,0,RxERR,0,TxCNT,108,RxCNT,1192,DTMS,1004,DTIN,0,DTOUT,435*4D
273$GPGSA,A,3,03,06,11,14,16,18,19,22,,,,,1.1,0.5,1.0*30
274$PGLOR,FIX,1.0*3E
275$GPRMC,091704.00,A,4222.928028,N,00149.519983,E,051.5,035.2,200111,,*32
276$GPGGA,091705.00,4222.939443,N,00149.530875,E,1,08,0.5,1090.0,M,,M,,*4B
277$PGLOR,STA,091706.00,1.209,0.000,-1225,1,5,3,PWR,D,N*40
278$PGLOR,SIO,TxERR,0,RxERR,0,TxCNT,108,RxCNT,1372,DTMS,1000,DTIN,0,DTOUT,435*45
279$GPGSA,A,3,03,06,11,14,16,18,19,22,,,,,1.1,0.5,1.0*30
280$PGLOR,FIX,1.0*3E
281$GPRMC,091706.00,A,4222.950791,N,00149.541569,E,050.7,035.0,200111,,*3E
282$GPGGA,091707.00,4222.962041,N,00149.552130,E,1,08,0.5,1090.0,M,,M,,*4D
283$PGLOR,STA,091709.00,1.209,0.000,-1225,1,5,3,PWR,D,N*4F
284$PGLOR,SIO,TxERR,0,RxERR,0,TxCNT,108,RxCNT,1352,DTMS,998,DTIN,0,DTOUT,435*7E
285$GPGSA,A,3,03,06,11,14,16,18,19,22,,,,,1.1,0.5,1.0*30
286$PGLOR,FIX,1.0*3E
287$GPRMC,091709.00,A,4222.984276,N,00149.572706,E,049.7,034.9,200111,,*3F
288$GPGGA,091710.00,4222.995167,N,00149.582856,E,1,08,0.5,1091.0,M,,M,,*43
289$PGLOR,STA,091711.00,1.209,0.000,-1225,1,5,3,PWR,D,N*46
290$PGLOR,SIO,TxERR,0,RxERR,0,TxCNT,96,RxCNT,1456,DTMS,1004,DTIN,0,DTOUT,435*76
291$GPGSA,A,3,03,06,11,14,16,18,19,22,,,,,1.1,0.5,1.0*30
292$PGLOR,FIX,1.0*3E
293$GPRMC,091711.00,A,4223.005979,N,00149.592970,E,048.6,035.3,200111,,*39
294$GPGGA,091712.00,4223.016794,N,00149.602966,E,1,08,0.5,1091.0,M,,M,,*41
295$PGLOR,STA,091714.00,1.209,0.000,-1225,1,5,3,PWR,D,N*43
296$PGLOR,SIO,TxERR,0,RxERR,0,TxCNT,144,RxCNT,1216,DTMS,1000,DTIN,1,DTOUT,435*4F
297$GPGSA,A,3,03,06,11,14,16,18,19,22,,,,,1.1,0.5,1.0*30
298$PGLOR,FIX,1.0*3E
299$GPRMC,091714.00,A,4223.038283,N,00149.622865,E,047.6,034.8,200111,,*34
300$GPGGA,091715.00,4223.048996,N,00149.632766,E,1,08,0.5,1092.0,M,,M,,*4F
301$PGLOR,STA,091716.00,1.209,0.000,-1225,1,5,3,PWR,D,N*41
302$PGLOR,SIO,TxERR,0,RxERR,0,TxCNT,204,RxCNT,1268,DTMS,998,DTIN,1,DTOUT,435*78
303$GPGSA,A,3,03,06,11,14,16,18,19,22,,,,,1.1,0.5,1.0*30
304$PGLOR,FIX,1.0*3E
305$GPRMC,091716.00,A,4223.059698,N,00149.642512,E,047.0,034.3,200111,,*39
306$GPGGA,091717.00,4223.070375,N,00149.652232,E,1,07,0.5,1092.0,M,,M,,*4C
307$PGLOR,STA,091719.00,1.209,0.000,-1227,1,5,3,PWR,D,N*4C
308$PGLOR,SIO,TxERR,0,RxERR,0,TxCNT,148,RxCNT,3064,DTMS,1026,DTIN,1,DTOUT,435*42
309$GPGSA,A,3,03,06,14,16,18,19,22,,,,,,1.1,0.5,1.0*30
310$PGLOR,FIX,1.0*3E
311$GPRMC,091719.00,A,4223.091787,N,00149.671918,E,046.0,034.6,200111,,*3F
312$GPGGA,091720.00,4223.102286,N,00149.681674,E,1,07,0.5,1093.0,M,,M,,*48
313$PGLOR,STA,091721.00,1.209,0.000,-1225,1,5,3,PWR,D,N*45
314$PGLOR,SIO,TxERR,0,RxERR,0,TxCNT,356,RxCNT,2932,DTMS,1005,DTIN,1,DTOUT,435*45
315$GPGSA,A,3,03,06,14,16,18,19,22,24,,,,,1.1,0.5,1.0*36
316$PGLOR,FIX,1.0*3E
317$GPRMC,091721.00,A,4223.112726,N,00149.691540,E,045.8,034.6,200111,,*31
318$GPGGA,091722.00,4223.123237,N,00149.701455,E,1,07,0.5,1094.0,M,,M,,*4C
319$PGLOR,STA,091724.00,1.209,0.000,-1224,1,5,3,PWR,D,N*41
320$PGLOR,SIO,TxERR,0,RxERR,0,TxCNT,84,RxCNT,2712,DTMS,986,DTIN,0,DTOUT,435*47
321$GPGSA,A,3,03,06,14,16,19,22,24,,,,,,1.1,0.5,1.0*3F
322$PGLOR,FIX,1.0*3E
323$GPRMC,091724.00,A,4223.144325,N,00149.721201,E,046.1,034.1,200111,,*35
324$GPGGA,091725.00,4223.154862,N,00149.731167,E,1,07,1.0,1095.0,M,,M,,*43
325$PGLOR,STA,091726.00,1.209,0.000,-1224,1,10,3,PWR,D,N*77
326$PGLOR,SIO,TxERR,0,RxERR,0,TxCNT,188,RxCNT,2276,DTMS,988,DTIN,1,DTOUT,435*72
327$PGLOR,PFM,HAL,P,0,0,100,0,RF,F,-123,0.7,62,RTC,18.5,P,STO,P,LTO,F*49
328$GPGSA,A,3,03,06,11,14,16,19,22,24,,,,,2.2,1.0,2.0*38
329$PGLOR,FIX,1.0*3E
330$GPRMC,091726.00,A,4223.165294,N,00149.741149,E,045.8,035.0,200111,,*3C
331$GPGGA,091727.00,4223.175722,N,00149.751139,E,1,08,1.0,1096.0,M,,M,,*48
332$PGLOR,STA,091729.00,1.209,0.000,-1223,1,10,3,PWR,D,N*7F
333$PGLOR,SIO,TxERR,0,RxERR,0,TxCNT,108,RxCNT,2124,DTMS,1002,DTIN,0,DTOUT,435*45
334$GPGSA,A,3,03,06,11,14,16,19,22,24,,,,,2.2,1.0,2.0*38
335$PGLOR,FIX,1.0*3E
336$GPRMC,091729.00,A,4223.196961,N,00149.770882,E,046.2,034.2,200111,,*38
337$GPGGA,091730.00,4223.207684,N,00149.780966,E,1,07,1.0,1097.0,M,,M,,*45
338$PGLOR,STA,091731.00,1.209,0.000,-1222,1,5,3,PWR,D,N*43
339$PGLOR,SIO,TxERR,0,RxERR,0,TxCNT,216,RxCNT,2164,DTMS,998,DTIN,1,DTOUT,435*77
340$GPGSA,A,3,03,06,11,14,16,19,24,,,,,,1.1,0.5,1.0*3F
341$PGLOR,FIX,1.0*3E
342$GPRMC,091731.00,A,4223.218454,N,00149.791012,E,046.5,034.2,200111,,*36
343$GPGGA,091732.00,4223.229179,N,00149.801166,E,1,07,0.5,1097.0,M,,M,,*44
344$PGLOR,STA,091734.00,1.209,0.000,-1222,1,10,3,PWR,D,N*72
345$PGLOR,SIO,TxERR,0,RxERR,0,TxCNT,148,RxCNT,2000,DTMS,1000,DTIN,1,DTOUT,435*45
346$GPGSA,A,3,03,06,11,14,16,19,24,30,,,,,2.2,1.0,2.0*3B
347$PGLOR,FIX,1.0*3E
348$GPRMC,091734.00,A,4223.250563,N,00149.821902,E,047.0,035.1,200111,,*30
349$GPGGA,091735.00,4223.261412,N,00149.832217,E,1,07,1.0,1098.0,M,,M,,*49
350$PGLOR,STA,091736.00,1.209,0.000,-1222,1,10,3,PWR,D,N*70
351$PGLOR,SIO,TxERR,0,RxERR,0,TxCNT,132,RxCNT,2208,DTMS,991,DTIN,1,DTOUT,435*72
352$GPGSA,A,3,03,06,11,14,16,19,30,,,,,,2.2,1.0,2.0*3D
353$PGLOR,FIX,1.0*3E
354$GPRMC,091736.00,A,4223.272338,N,00149.842472,E,047.4,034.1,200111,,*30
355$GPGGA,091737.00,4223.283533,N,00149.852027,E,1,09,3.0,1099.0,M,,M,,*4F
356$PGLOR,STA,091739.00,1.209,0.000,-1221,1,10,3,PWR,D,N*7C
357$PGLOR,SIO,TxERR,0,RxERR,0,TxCNT,136,RxCNT,1248,DTMS,984,DTIN,1,DTOUT,435*75
358$GPGSA,A,3,03,06,11,14,16,18,19,22,24,30,,,2.2,1.0,2.0*32
359$PGLOR,FIX,1.0*3E
360$GPRMC,091739.00,A,4223.305676,N,00149.868653,E,047.5,027.3,200111,,*39
361$GPGGA,091740.00,4223.316807,N,00149.876487,E,1,08,1.0,1100.0,M,,M,,*42
362$PGLOR,STA,091741.00,1.209,0.000,-1222,1,10,3,PWR,D,N*70
363$PGLOR,SIO,TxERR,0,RxERR,0,TxCNT,108,RxCNT,1164,DTMS,990,DTIN,0,DTOUT,435*71
364$GPGSA,A,3,03,06,11,14,18,19,22,24,30,,,,2.2,1.0,2.0*35
365$PGLOR,FIX,1.0*3E
366$GPRMC,091741.00,A,4223.327989,N,00149.883944,E,047.6,025.4,200111,,*33
367$GPGGA,091742.00,4223.339318,N,00149.891062,E,1,08,1.0,1101.0,M,,M,,*4F
368$PGLOR,STA,091744.00,1.209,0.000,-1221,1,10,3,PWR,D,N*76
369$PGLOR,SIO,TxERR,0,RxERR,0,TxCNT,116,RxCNT,1464,DTMS,1000,DTIN,0,DTOUT,435*4A
370$GPGSA,A,3,03,06,11,14,18,19,22,24,30,,,,2.2,1.0,2.0*35
371$PGLOR,FIX,1.0*3E
372$GPRMC,091744.00,A,4223.362584,N,00149.904984,E,047.5,023.0,200111,,*35
373$GPGGA,091745.00,4223.374404,N,00149.911912,E,1,08,1.0,1102.0,M,,M,,*4F
374$PGLOR,STA,091746.00,1.209,0.000,-1222,1,10,3,PWR,D,N*77
375$PGLOR,SIO,TxERR,0,RxERR,0,TxCNT,120,RxCNT,1936,DTMS,1005,DTIN,1,DTOUT,435*41
376$GPGSA,A,3,03,06,11,14,18,19,22,24,30,,,,2.2,1.0,2.0*35
377$PGLOR,FIX,1.0*3E
378$GPRMC,091746.00,A,4223.386318,N,00149.918700,E,047.6,022.6,200111,,*35
379$GPGGA,091747.00,4223.398258,N,00149.925458,E,1,08,0.5,1102.0,M,,M,,*40
380$PGLOR,STA,091749.00,1.209,0.000,-1222,1,10,3,PWR,D,N*78
381$PGLOR,SIO,TxERR,0,RxERR,0,TxCNT,108,RxCNT,1936,DTMS,1007,DTIN,0,DTOUT,435*48
382$GPGSA,A,3,03,06,11,14,18,19,22,24,30,,,,2.2,1.0,2.0*35
383$PGLOR,FIX,1.0*3E
384$GPRMC,091749.00,A,4223.422325,N,00149.939123,E,047.6,022.3,200111,,*3C
385$GPGGA,091750.00,4223.434517,N,00149.945950,E,1,08,1.0,1103.0,M,,M,,*4D
386$PGLOR,STA,091751.00,1.209,0.000,-1222,1,10,3,PWR,D,N*71
387$PGLOR,SIO,TxERR,0,RxERR,0,TxCNT,108,RxCNT,1776,DTMS,998,DTIN,0,DTOUT,435*7C
388$GPGSA,A,3,03,06,11,14,18,19,22,24,30,,,,2.2,1.0,2.0*35
389$PGLOR,FIX,1.0*3E
390$GPRMC,091751.00,A,4223.446738,N,00149.952958,E,047.8,022.5,200111,,*3E
391$GPGGA,091752.00,4223.459044,N,00149.960020,E,1,08,1.0,1104.0,M,,M,,*49
392$PGLOR,STA,091754.00,1.209,0.000,-1223,1,10,3,PWR,D,N*75
393$PGLOR,SIO,TxERR,0,RxERR,0,TxCNT,120,RxCNT,1284,DTMS,996,DTIN,0,DTOUT,435*70
394$GPGSA,A,3,03,06,07,11,14,18,19,22,24,30,,,2.2,1.0,2.0*32
395$PGLOR,FIX,1.0*3E
396$GPRMC,091754.00,A,4223.483645,N,00149.974447,E,047.9,023.5,200111,,*3E
397$GPGGA,091755.00,4223.495849,N,00149.982045,E,1,08,1.0,1106.0,M,,M,,*46
398$PGLOR,STA,091756.00,1.209,0.000,-1223,1,10,3,PWR,D,N*77
399$PGLOR,SIO,TxERR,0,RxERR,0,TxCNT,116,RxCNT,1400,DTMS,1000,DTIN,0,DTOUT,435*48
400$GPGSA,A,3,03,06,11,14,18,19,22,24,30,,,,2.2,1.0,2.0*35
401$PGLOR,FIX,1.0*3E
402$GPRMC,091756.00,A,4223.507888,N,00149.990118,E,048.0,026.6,200111,,*3B
403$GPGGA,091757.00,4223.519720,N,00149.998828,E,1,08,0.5,1106.0,M,,M,,*4D
404$PGLOR,STA,091759.00,1.209,0.000,-1222,1,10,3,PWR,D,N*79
405$PGLOR,SIO,TxERR,0,RxERR,0,TxCNT,96,RxCNT,1552,DTMS,1001,DTIN,0,DTOUT,435*76
406$GPGSA,A,3,03,06,11,14,18,19,22,24,30,,,,2.2,1.0,2.0*35
407$PGLOR,FIX,1.0*3E
408$GPRMC,091759.00,A,4223.542646,N,00150.018038,E,048.2,033.4,200111,,*3F
409$GPGGA,091800.00,4223.553586,N,00150.028533,E,1,08,1.0,1108.0,M,,M,,*47
410$PGLOR,STA,091801.00,1.209,0.000,-1221,1,5,3,PWR,D,N*4C
411$PGLOR,SIO,TxERR,0,RxERR,0,TxCNT,232,RxCNT,1372,DTMS,998,DTIN,1,DTOUT,435*77
412$GPGSA,A,3,03,06,11,14,18,19,22,24,30,,,,1.1,0.5,1.0*32
413$PGLOR,FIX,1.0*3E
414$GPRMC,091801.00,A,4223.564166,N,00150.039664,E,048.4,038.8,200111,,*31
415$GPGGA,091802.00,4223.574498,N,00150.051307,E,1,08,1.0,1109.0,M,,M,,*40
416$PGLOR,STA,091804.00,1.209,0.000,-1221,1,10,3,PWR,D,N*7D
417$PGLOR,SIO,TxERR,0,RxERR,0,TxCNT,148,RxCNT,1584,DTMS,1002,DTIN,1,DTOUT,435*4D
418$GPGSA,A,3,03,06,11,14,18,19,22,24,30,,,,2.2,1.0,2.0*35
419$PGLOR,FIX,1.0*3E
420$GPRMC,091804.00,A,4223.594270,N,00150.076461,E,048.9,045.3,200111,,*3F
421$GPGGA,091805.00,4223.603552,N,00150.090068,E,1,08,1.0,1110.0,M,,M,,*4C
422$PGLOR,STA,091806.00,1.209,0.000,-1220,1,5,3,PWR,D,N*4A
423$PGLOR,SIO,TxERR,0,RxERR,0,TxCNT,148,RxCNT,1744,DTMS,998,DTIN,1,DTOUT,435*78
424$GPGSA,A,3,03,06,11,14,18,19,22,24,30,,,,1.1,0.5,1.0*32
425$PGLOR,FIX,1.0*3E
426$GPRMC,091806.00,A,4223.612441,N,00150.104295,E,049.5,050.2,200111,,*35
427$GPGGA,091807.00,4223.620828,N,00150.119155,E,1,08,1.0,1111.0,M,,M,,*41
428$PGLOR,STA,091809.00,1.209,0.000,-1220,1,5,3,PWR,D,N*45
429$PGLOR,SIO,TxERR,0,RxERR,0,TxCNT,124,RxCNT,1416,DTMS,999,DTIN,1,DTOUT,435*77
430$GPGSA,A,3,03,06,11,14,18,19,22,24,30,,,,1.1,0.5,1.0*32
431$PGLOR,FIX,1.0*3E
432$GPRMC,091809.00,A,4223.636104,N,00150.150659,E,050.0,058.7,200111,,*3D
433$GPGGA,091810.00,4223.643177,N,00150.166999,E,1,08,0.5,1112.0,M,,M,,*46
434$PGLOR,STA,091811.00,1.209,0.000,-1219,1,5,3,PWR,D,N*46
435$PGLOR,SIO,TxERR,0,RxERR,0,TxCNT,148,RxCNT,1588,DTMS,1012,DTIN,1,DTOUT,435*40
436$GPGSA,A,3,03,06,11,14,18,19,22,24,30,,,,1.1,0.5,1.0*32
437$PGLOR,FIX,1.0*3E
438$GPRMC,091811.00,A,4223.650012,N,00150.183468,E,050.0,061.6,200111,,*37
439$GPGGA,091812.00,4223.656324,N,00150.200259,E,1,09,0.5,1112.0,M,,M,,*41
440$PGLOR,STA,091814.00,1.209,0.000,-1219,1,5,3,PWR,D,N*43
441$PGLOR,SIO,TxERR,0,RxERR,0,TxCNT,320,RxCNT,1616,DTMS,1002,DTIN,2,DTOUT,435*4A
442$GPGSA,A,3,03,06,11,14,18,19,22,24,30,,,,1.1,0.5,1.0*32
443$PGLOR,FIX,1.0*3E
444$GPRMC,091814.00,A,4223.668237,N,00150.233957,E,048.9,064.1,200111,,*37
445$GPGGA,091815.00,4223.674208,N,00150.250460,E,1,08,0.5,1113.0,M,,M,,*40
446$PGLOR,STA,091816.00,1.209,0.000,-1218,1,5,3,PWR,D,N*40
447$PGLOR,SIO,TxERR,0,RxERR,0,TxCNT,108,RxCNT,948,DTMS,1001,DTIN,0,DTOUT,495*7C
448$GPGSA,A,3,03,06,11,14,18,19,22,24,30,,,,1.1,0.5,1.0*32
449$PGLOR,FIX,1.0*3E
450$GPRMC,091816.00,A,4223.680192,N,00150.266774,E,048.4,062.9,200111,,*33
451$GPGGA,091817.00,4223.686202,N,00150.283029,E,1,08,0.5,1114.0,M,,M,,*45
452$PGLOR,STA,091819.00,1.209,0.000,-1218,1,5,3,PWR,D,N*4F
453$PGLOR,SIO,TxERR,0,RxERR,0,TxCNT,136,RxCNT,1524,DTMS,1000,DTIN,1,DTOUT,495*46
454$GPGSA,A,3,03,06,11,14,18,19,22,24,30,,,,1.1,0.5,1.0*32
455$PGLOR,FIX,1.0*3E
456$GPRMC,091819.00,A,4223.698803,N,00150.314785,E,048.2,060.3,200111,,*30
457$GPGGA,091820.00,4223.705440,N,00150.330385,E,1,08,0.5,1115.0,M,,M,,*46
458$PGLOR,STA,091821.00,1.209,0.000,-1218,1,5,3,PWR,D,N*44
459$PGLOR,SIO,TxERR,0,RxERR,0,TxCNT,120,RxCNT,1276,DTMS,1000,DTIN,0,DTOUT,495*40
460$GPGSA,A,3,03,06,11,14,18,19,22,24,30,,,,1.1,0.5,1.0*32
461$PGLOR,FIX,1.0*3E
462$GPRMC,091821.00,A,4223.712386,N,00150.346000,E,048.4,058.2,200111,,*3F
463$GPGGA,091822.00,4223.719700,N,00150.361459,E,1,08,0.5,1115.0,M,,M,,*4C
464$PGLOR,STA,091824.00,1.209,0.000,-1219,1,5,3,PWR,D,N*40
465$PGLOR,SIO,TxERR,0,RxERR,0,TxCNT,148,RxCNT,1416,DTMS,999,DTIN,1,DTOUT,495*77
466$GPGSA,A,3,03,06,11,14,18,19,22,24,30,,,,1.1,0.5,1.0*32
467$PGLOR,FIX,1.0*3E
468$GPRMC,091824.00,A,4223.735090,N,00150.391646,E,048.8,054.4,200111,,*33
469$GPGGA,091825.00,4223.743088,N,00150.406384,E,1,08,0.5,1116.0,M,,M,,*41
470$PGLOR,STA,091826.00,1.209,0.000,-1218,1,5,3,PWR,D,N*43
471$PGLOR,SIO,TxERR,0,RxERR,0,TxCNT,128,RxCNT,1116,DTMS,1000,DTIN,0,DTOUT,495*4D
472$GPGSA,A,3,03,06,11,14,18,19,22,24,30,,,,1.1,0.5,1.0*32
473$PGLOR,FIX,1.0*3E
474$GPRMC,091826.00,A,4223.751341,N,00150.420771,E,048.7,051.7,200111,,*3D
475$GPGGA,091827.00,4223.759760,N,00150.435022,E,1,08,0.5,1117.0,M,,M,,*47
476$PGLOR,STA,091829.00,1.209,0.000,-1219,1,10,3,PWR,D,N*79
477$PGLOR,SIO,TxERR,0,RxERR,0,TxCNT,204,RxCNT,1564,DTMS,1019,DTIN,0,DTOUT,495*49
478$GPGSA,A,3,03,06,11,14,18,19,22,24,30,,,,2.2,1.0,2.0*35
479$PGLOR,FIX,1.0*3E
480$GPRMC,091829.00,A,4223.777206,N,00150.462673,E,048.5,048.5,200111,,*39
481$GPGGA,091830.00,4223.786189,N,00150.475946,E,1,08,0.5,1118.0,M,,M,,*42
482$PGLOR,STA,091831.00,1.209,0.000,-1220,1,10,3,PWR,D,N*7A
483$PGLOR,SIO,TxERR,0,RxERR,0,TxCNT,392,RxCNT,1420,DTMS,999,DTIN,2,DTOUT,495*74
484$GPGSA,A,3,03,06,11,14,16,18,19,22,24,30,,,2.2,1.0,2.0*32
485$PGLOR,FIX,1.0*3E
486$GPRMC,091831.00,A,4223.795460,N,00150.488803,E,048.1,045.9,200111,,*32
487$GPGGA,091832.00,4223.804747,N,00150.501398,E,1,08,1.0,1118.0,M,,M,,*4E
488$PGLOR,STA,091834.00,1.209,0.000,-1220,1,5,3,PWR,D,N*4B
489$PGLOR,SIO,TxERR,0,RxERR,0,TxCNT,256,RxCNT,1500,DTMS,991,DTIN,2,DTOUT,495*76
490$GPGSA,A,3,03,06,11,14,16,18,19,22,24,30,,,1.1,0.5,1.0*35
491$PGLOR,FIX,1.0*3E
492$GPRMC,091834.00,A,4223.823778,N,00150.525850,E,047.4,043.0,200111,,*3A
493$GPGGA,091835.00,4223.833469,N,00150.537891,E,1,08,0.5,1120.0,M,,M,,*4A
494$PGLOR,STA,091836.00,1.209,0.000,-1220,1,5,3,PWR,D,N*49
495$PGLOR,SIO,TxERR,0,RxERR,0,TxCNT,132,RxCNT,1228,DTMS,1004,DTIN,0,DTOUT,495*4C
496$GPGSA,A,3,03,06,11,14,16,18,19,22,24,30,,,1.1,0.5,1.0*35
497$PGLOR,FIX,1.0*3E
498$GPRMC,091836.00,A,4223.843323,N,00150.549611,E,047.2,041.3,200111,,*32
499$GPGGA,091837.00,4223.853363,N,00150.560952,E,1,08,1.0,1120.0,M,,M,,*4B
500$PGLOR,STA,091839.00,1.209,0.000,-1219,1,10,3,PWR,D,N*78
501$PGLOR,SIO,TxERR,0,RxERR,0,TxCNT,132,RxCNT,1348,DTMS,1004,DTIN,0,DTOUT,495*4B
502$GPGSA,A,3,03,06,11,14,16,18,19,22,24,30,,,2.2,1.0,2.0*32
503$PGLOR,FIX,1.0*3E
504$GPRMC,091839.00,A,4223.873888,N,00150.582127,E,046.7,036.2,200111,,*34
505$GPGGA,091840.00,4223.884382,N,00150.592099,E,1,08,1.0,1122.0,M,,M,,*4F
506$PGLOR,STA,091841.00,1.209,0.000,-1219,1,10,3,PWR,D,N*77
507$PGLOR,SIO,TxERR,0,RxERR,0,TxCNT,148,RxCNT,1540,DTMS,999,DTIN,1,DTOUT,495*75
508$GPGSA,A,3,03,06,11,14,16,18,19,22,24,30,,,2.2,1.0,2.0*32
509$PGLOR,FIX,1.0*3E
510$GPRMC,091841.00,A,4223.895034,N,00150.601701,E,046.5,033.1,200111,,*32
511$GPGGA,091842.00,4223.905690,N,00150.611170,E,1,08,1.0,1123.0,M,,M,,*4C
512$PGLOR,STA,092258.00,1.209,0.000,-1189,1,5,3,PWR,D,N*48
513$PGLOR,SIO,TxERR,0,RxERR,0,TxCNT,180,RxCNT,1480,DTMS,1010,DTIN,2,DTOUT,495*46
514$GPGSA,A,3,03,06,11,16,18,19,22,30,32,,,,1.1,0.5,1.0*37
515$PGLOR,FIX,1.0*3E
516$GPRMC,092258.00,A,4225.116349,N,00153.090211,E,035.3,067.0,200111,,*35
517$GPGGA,092259.00,4225.120146,N,00153.102270,E,1,08,0.5,1163.0,M,,M,,*4F
518$PGLOR,STA,092301.00,1.209,0.000,-1189,1,5,3,PWR,D,N*45
519$PGLOR,SIO,TxERR,0,RxERR,0,TxCNT,168,RxCNT,1472,DTMS,998,DTIN,1,DTOUT,495*76
520$GPGSA,A,3,03,06,11,16,18,19,22,32,,,,,1.1,0.5,1.0*34
521$PGLOR,FIX,1.0*3E
522$GPRMC,092301.00,A,4225.127628,N,00153.125869,E,034.0,066.8,200111,,*39
523$GPGGA,092302.00,4225.131337,N,00153.137626,E,1,07,0.5,1164.0,M,,M,,*4D
524$PGLOR,STA,092303.00,1.209,0.000,-1188,1,5,3,PWR,D,N*46
525$PGLOR,SIO,TxERR,0,RxERR,0,TxCNT,336,RxCNT,2168,DTMS,1026,DTIN,2,DTOUT,495*4C
526$GPGSA,A,3,03,06,11,16,18,19,22,,,,,,1.1,0.5,1.0*35
527$PGLOR,FIX,1.0*3E
528$GPRMC,092303.00,A,4225.135097,N,00153.149538,E,034.5,066.8,200111,,*3C
529$GPGGA,092304.00,4225.138879,N,00153.161808,E,1,07,0.5,1165.0,M,,M,,*43
530$PGLOR,STA,092306.00,1.209,0.000,-1187,1,5,3,PWR,D,N*4C
531$PGLOR,SIO,TxERR,0,RxERR,0,TxCNT,136,RxCNT,2248,DTMS,1008,DTIN,1,DTOUT,495*40
532$GPGSA,A,3,03,06,11,14,16,18,19,22,,,,,1.1,0.5,1.0*30
533$PGLOR,FIX,1.0*3E
534$GPRMC,092306.00,A,4225.145991,N,00153.186900,E,035.8,068.9,200111,,*36
535$GPGGA,092307.00,4225.149044,N,00153.199548,E,1,08,1.0,1166.0,M,,M,,*46
536$PGLOR,STA,092308.00,1.209,0.000,-1187,1,5,3,PWR,D,N*42
537$PGLOR,SIO,TxERR,0,RxERR,0,TxCNT,132,RxCNT,2284,DTMS,999,DTIN,1,DTOUT,495*74
538$GPGSA,A,3,03,06,11,14,16,18,19,22,,,,,1.1,0.5,1.0*30
539$PGLOR,FIX,1.0*3E
540$GPRMC,092308.00,A,4225.151494,N,00153.212332,E,035.3,073.2,200111,,*3A
541$GPGGA,092309.00,4225.153110,N,00153.225205,E,1,08,0.5,1166.0,M,,M,,*4D
542$PGLOR,STA,092311.00,1.209,0.000,-1187,1,5,1,PWR,D,N*48
543$PGLOR,SIO,TxERR,0,RxERR,0,TxCNT,84,RxCNT,2196,DTMS,990,DTIN,0,DTOUT,495*40
544$GPGSA,A,3,03,06,11,14,16,18,19,22,,,,,1.1,0.5,1.0*30
545$PGLOR,FIX,1.0*3E
546$GPRMC,092311.00,A,4225.151559,N,00153.251136,E,034.1,096.7,200111,,*3E
547$GPGGA,092312.00,4225.149426,N,00153.263742,E,1,08,1.0,1168.0,M,,M,,*42
548$PGLOR,STA,092313.00,1.209,0.000,-1187,1,5,3,PWR,D,N*48
549$PGLOR,SIO,TxERR,0,RxERR,0,TxCNT,96,RxCNT,1204,DTMS,985,DTIN,0,DTOUT,495*4C
550$GPGSA,A,3,03,06,11,14,16,18,19,22,32,,,,1.1,0.5,1.0*31
551$PGLOR,FIX,1.0*3E
552$GPRMC,092313.00,A,4225.147024,N,00153.275980,E,033.2,100.2,200111,,*38
553$GPGGA,092314.00,4225.144077,N,00153.287875,E,1,08,0.5,1168.0,M,,M,,*4C
554$PGLOR,STA,092316.00,1.209,0.000,-1186,1,5,1,PWR,D,N*4E
555$PGLOR,SIO,TxERR,0,RxERR,0,TxCNT,96,RxCNT,1192,DTMS,1000,DTIN,0,DTOUT,495*75
556$GPGSA,A,3,03,06,11,14,16,18,19,22,,,,,1.1,0.5,1.0*30
557$PGLOR,FIX,1.0*3E
558$GPRMC,092316.00,A,4225.134646,N,00153.310000,E,033.4,120.2,200111,,*3C
559$GPGGA,092317.00,4225.128857,N,00153.320331,E,1,08,1.0,1169.0,M,,M,,*4D
560$PGLOR,STA,092318.00,1.209,0.000,-1187,1,10,3,PWR,D,N*77
561$PGLOR,SIO,TxERR,0,RxERR,0,TxCNT,108,RxCNT,1320,DTMS,999,DTIN,1,DTOUT,495*71
562$GPGSA,A,3,03,06,11,14,16,18,19,22,,,,,2.2,1.0,2.0*37
563$PGLOR,FIX,1.0*3E
564$GPRMC,092318.00,A,4225.122765,N,00153.330287,E,033.9,124.3,200111,,*32
565$GPGGA,092319.00,4225.117532,N,00153.336900,E,1,08,1.0,1169.0,M,,M,,*4E
566$PGLOR,STA,092321.00,1.209,0.000,-1187,1,10,3,PWR,D,N*7D
567$PGLOR,SIO,TxERR,0,RxERR,0,TxCNT,136,RxCNT,1228,DTMS,998,DTIN,1,DTOUT,495*74
568$GPGSA,A,3,03,06,11,14,16,18,19,22,,,,,2.2,1.0,2.0*37
569$PGLOR,FIX,1.0*3E
570$GPRMC,092321.00,A,4225.104176,N,00153.356108,E,033.3,129.6,200111,,*3E
571$GPGGA,092322.00,4225.097797,N,00153.364880,E,1,08,3.0,1171.0,M,,M,,*47
572$PGLOR,STA,092323.00,1.209,0.000,-1186,1,10,3,PWR,D,N*7E
573$PGLOR,SIO,TxERR,0,RxERR,0,TxCNT,132,RxCNT,1340,DTMS,999,DTIN,0,DTOUT,495*7F
574$GPGSA,A,3,03,06,11,14,16,18,19,22,,,,,2.2,1.0,2.0*37
575$PGLOR,FIX,1.0*3E
576$GPRMC,092323.00,A,4225.091516,N,00153.373184,E,031.3,132.6,200111,,*38
577$GPGGA,092324.00,4225.085181,N,00153.381748,E,1,08,1.0,1171.0,M,,M,,*41
578$PGLOR,STA,092326.00,1.209,0.000,-1185,1,10,3,PWR,D,N*78
579$PGLOR,SIO,TxERR,0,RxERR,0,TxCNT,296,RxCNT,1944,DTMS,1001,DTIN,2,DTOUT,495*47
580$GPGSA,A,3,03,06,11,14,16,18,19,22,,,,,2.2,1.0,2.0*37
581$PGLOR,FIX,1.0*3E
582$GPRMC,092326.00,A,4225.072784,N,00153.399964,E,032.7,130.0,200111,,*38
583$GPGGA,092327.00,4225.067066,N,00153.409864,E,1,07,1.0,1173.0,M,,M,,*4D
584$PGLOR,STA,092328.00,1.209,0.000,-1184,1,5,3,PWR,D,N*43
585$PGLOR,SIO,TxERR,0,RxERR,0,TxCNT,380,RxCNT,1372,DTMS,1002,DTIN,2,DTOUT,495*4D
586$GPGSA,A,3,03,06,11,14,16,18,19,22,24,,,,1.1,0.5,1.0*36
587$PGLOR,FIX,1.0*3E
588$GPRMC,092328.00,A,4225.061815,N,00153.420594,E,033.9,123.6,200111,,*3E
589$GPGGA,092329.00,4225.057195,N,00153.431991,E,1,08,1.0,1175.0,M,,M,,*44
590$PGLOR,STA,092331.00,1.209,0.000,-1183,1,10,0,PWR,D,N*7B
591$PGLOR,SIO,TxERR,0,RxERR,0,TxCNT,120,RxCNT,1232,DTMS,1001,DTIN,0,DTOUT,495*41
592$GPGSA,A,3,03,06,11,14,16,18,19,22,24,,,,2.2,1.0,2.0*31
593$PGLOR,FIX,1.0*3E
594$GPRMC,092331.00,A,4225.051953,N,00153.455320,E,034.6,106.1,200111,,*35
595$GPGGA,092332.00,4225.050426,N,00153.467221,E,1,08,1.0,1178.0,M,,M,,*4A
596$PGLOR,STA,092333.00,1.209,0.000,-1182,1,10,1,PWR,D,N*79
597$PGLOR,SIO,TxERR,0,RxERR,0,TxCNT,132,RxCNT,1072,DTMS,1003,DTIN,0,DTOUT,495*46
598$GPGSA,A,3,03,06,11,14,16,18,19,22,24,30,,,2.2,1.0,2.0*32
599$PGLOR,FIX,1.0*3E
600$GPRMC,092333.00,A,4225.051147,N,00153.480519,E,034.8,089.4,200111,,*33
601$GPGGA,092334.00,4225.052026,N,00153.493846,E,1,08,1.0,1179.0,M,,M,,*4B
602$PGLOR,STA,092335.00,1.209,0.000,-1181,1,10,3,PWR,D,N*7E
603$PGLOR,SIO,TxERR,0,RxERR,0,TxCNT,244,RxCNT,1612,DTMS,996,DTIN,2,DTOUT,495*72
604$GPGSA,A,3,03,06,11,14,16,18,19,22,24,30,,,2.2,1.0,2.0*32
605$PGLOR,FIX,1.0*3E
606$GPRMC,092335.00,A,4225.053224,N,00153.507203,E,035.1,086.0,200111,,*30
607$GPGGA,092336.00,4225.054967,N,00153.520805,E,1,08,1.0,1180.0,M,,M,,*4B
608$PGLOR,STA,092338.00,1.209,0.000,-1182,1,10,3,PWR,D,N*70
609$PGLOR,SIO,TxERR,0,RxERR,0,TxCNT,128,RxCNT,1228,DTMS,1001,DTIN,0,DTOUT,495*42
610$GPGSA,A,3,03,06,11,14,16,18,19,22,24,30,,,2.2,1.0,2.0*32
611$PGLOR,FIX,1.0*3E
612$GPRMC,092338.00,A,4225.060213,N,00153.548587,E,037.7,077.7,200111,,*34
613$GPGGA,092339.00,4225.063596,N,00153.562680,E,1,08,1.0,1182.0,M,,M,,*45
614$PGLOR,STA,092339.00,1.209,0.000,-1181,1,10,3,PWR,D,N*72
615$PGLOR,SIO,TxERR,0,RxERR,0,TxCNT,232,RxCNT,1544,DTMS,999,DTIN,1,DTOUT,495*7F
616$GPGSA,A,3,03,06,11,14,16,18,19,22,24,30,,,2.2,1.0,2.0*32
617$PGLOR,FIX,1.0*3E
618$GPRMC,092339.00,A,4225.063596,N,00153.562680,E,038.5,075.5,200111,,*3D
619$GPGGA,092340.00,4225.065980,N,00153.566088,E,1,08,1.0,1182.0,M,,M,,*4C
620$PGLOR,STA,092340.00,1.209,0.000,-1181,1,10,3,PWR,D,N*7C
621$PGLOR,SIO,TxERR,0,RxERR,0,TxCNT,216,RxCNT,1300,DTMS,999,DTIN,1,DTOUT,495*7F
622$GPGSA,A,3,03,06,11,14,16,18,19,22,24,30,,,2.2,1.0,2.0*32
623$PGLOR,FIX,1.0*3E
624$GPRMC,092340.00,A,4225.065980,N,00153.566088,E,039.3,073.5,200111,,*35
625$GPGGA,092341.00,4225.070739,N,00153.580262,E,1,08,0.5,1183.0,M,,M,,*4E
626$PGLOR,STA,092341.00,1.209,0.000,-1180,1,5,3,PWR,D,N*48
627$PGLOR,SIO,TxERR,0,RxERR,0,TxCNT,376,RxCNT,1380,DTMS,1003,DTIN,2,DTOUT,495*48
628$GPGSA,A,3,03,06,11,14,16,18,19,22,24,30,,,1.1,0.5,1.0*35
629$PGLOR,FIX,1.0*3E
630$GPRMC,092341.00,A,4225.070739,N,00153.580262,E,039.7,068.5,200111,,*3C
631$GPGGA,092342.00,4225.075535,N,00153.594855,E,1,08,0.5,1183.0,M,,M,,*4D
632$PGLOR,STA,092342.00,1.209,0.000,-1180,1,5,3,PWR,D,N*4B
633$PGLOR,SIO,TxERR,0,RxERR,0,TxCNT,96,RxCNT,1432,DTMS,998,DTIN,0,DTOUT,495*43
634$GPGSV,3,1,12,03,76,118,49,19,66,318,43,06,63,113,47,22,55,076,46*7A
635$GPGSV,3,2,12,18,27,048,47,16,24,178,45,24,22,255,39,11,19,268,39*76
636$GPGSV,3,3,12,14,10,119,36,30,07,170,23,32,08,199,,08,07,311,*75
637$GPGSA,A,3,03,06,11,14,16,18,19,22,24,,,,1.1,0.5,1.0*36
638$PGLOR,FIX,1.0*3E
639$GPRMC,092342.00,A,4225.075535,N,00153.594855,E,040.6,067.3,200111,,*39
640$GPGGA,092343.00,4225.080297,N,00153.609563,E,1,08,0.5,1184.0,M,,M,,*41
641$PGLOR,STA,092343.00,1.209,0.000,-1180,1,5,3,PWR,D,N*4A
642$PGLOR,SIO,TxERR,0,RxERR,0,TxCNT,228,RxCNT,1808,DTMS,1000,DTIN,1,DTOUT,495*49
643$GPGSA,A,3,03,06,11,14,16,18,19,22,24,,,,1.1,0.5,1.0*36
644$PGLOR,FIX,1.0*3E
645$GPRMC,092343.00,A,4225.080297,N,00153.609563,E,041.0,066.7,200111,,*30
646$GPGGA,092344.00,4225.084981,N,00153.624235,E,1,07,0.5,1184.0,M,,M,,*4A
647$PGLOR,STA,092344.00,1.209,0.000,-1180,1,5,3,PWR,D,N*4D
648$PGLOR,SIO,TxERR,0,RxERR,0,TxCNT,92,RxCNT,2092,DTMS,1003,DTIN,0,DTOUT,495*70
649$GPGSA,A,3,03,06,11,14,16,18,19,22,24,,,,1.1,0.5,1.0*36
650$PGLOR,FIX,1.0*3E
651$GPRMC,092344.00,A,4225.084981,N,00153.624235,E,041.1,066.5,200111,,*37
652$GPGGA,092345.00,4225.089712,N,00153.638850,E,1,08,0.5,1185.0,M,,M,,*48
653$PGLOR,STA,092345.00,1.209,0.000,-1179,1,5,3,PWR,D,N*4A
654$PGLOR,SIO,TxERR,0,RxERR,0,TxCNT,120,RxCNT,2312,DTMS,1006,DTIN,0,DTOUT,495*46
655$GPGSA,A,3,03,06,11,14,16,18,19,22,24,,,,1.1,0.5,1.0*36
656$PGLOR,FIX,1.0*3E
657$GPRMC,092345.00,A,4225.089712,N,00153.638850,E,041.3,066.3,200111,,*3F
658$GPGGA,092346.00,4225.094485,N,00153.653368,E,1,08,0.5,1185.0,M,,M,,*47
659$PGLOR,STA,092346.00,1.209,0.000,-1179,1,5,3,PWR,D,N*49
660$PGLOR,SIO,TxERR,0,RxERR,0,TxCNT,160,RxCNT,2572,DTMS,1006,DTIN,1,DTOUT,495*43
661$GPGSA,A,3,03,06,11,14,16,19,22,24,,,,,1.1,0.5,1.0*3F
662$PGLOR,FIX,1.0*3E
663$GPRMC,092346.00,A,4225.094485,N,00153.653368,E,041.3,066.4,200111,,*37
664$GPGGA,092347.00,4225.099237,N,00153.667935,E,1,07,1.0,1186.0,M,,M,,*49
665$PGLOR,STA,092347.00,1.209,0.000,-1179,1,10,3,PWR,D,N*7C
666$PGLOR,SIO,TxERR,0,RxERR,0,TxCNT,136,RxCNT,2060,DTMS,990,DTIN,1,DTOUT,495*71
667$GPGSV,3,1,12,03,76,119,48,19,66,318,36,06,63,113,47,22,55,076,46*78
668$GPGSV,3,2,12,16,24,178,45,24,22,255,38,11,19,268,41,14,10,119,40*72
669$GPGSV,3,3,12,18,27,048,17,32,08,199,,30,07,170,,08,07,311,*7A
670$GPGSA,A,3,03,06,11,14,16,19,22,24,,,,,2.2,1.0,2.0*38
671$PGLOR,FIX,1.0*3E
672$GPRMC,092347.00,A,4225.099237,N,00153.667935,E,041.5,066.6,200111,,*35
673$GPGGA,092348.00,4225.103949,N,00153.682623,E,1,08,0.5,1186.0,M,,M,,*4E
674$PGLOR,STA,092348.00,1.209,0.000,-1178,1,5,3,PWR,D,N*46
675$PGLOR,SIO,TxERR,0,RxERR,0,TxCNT,108,RxCNT,2144,DTMS,1002,DTIN,0,DTOUT,495*49
676$GPGSA,A,3,03,06,11,14,16,19,22,24,,,,,1.1,0.5,1.0*3F
677$PGLOR,FIX,1.0*3E
678$GPRMC,092348.00,A,4225.103949,N,00153.682623,E,041.6,067.0,200111,,*3D
679$GPGGA,092349.00,4225.108578,N,00153.697119,E,1,08,0.5,1186.0,M,,M,,*40
680$PGLOR,STA,092349.00,1.209,0.000,-1178,1,5,3,PWR,D,N*47
681$PGLOR,SIO,TxERR,0,RxERR,0,TxCNT,136,RxCNT,2172,DTMS,999,DTIN,1,DTOUT,495*7A
682$GPGSA,A,3,03,06,11,14,16,19,22,24,,,,,1.1,0.5,1.0*3F
683$PGLOR,FIX,1.0*3E
684$GPRMC,092349.00,A,4225.108578,N,00153.697119,E,041.5,067.0,200111,,*30
685$GPGGA,092350.00,4225.113125,N,00153.711510,E,1,05,0.5,1187.0,M,,M,,*40
686$PGLOR,STA,092350.00,1.209,0.000,-1178,1,5,3,PWR,D,N*4F
687$PGLOR,SIO,TxERR,0,RxERR,0,TxCNT,92,RxCNT,2072,DTMS,991,DTIN,0,DTOUT,495*4D
688$GPGSA,A,3,03,06,11,14,16,19,22,24,,,,,1.1,0.5,1.0*3F
689$PGLOR,FIX,1.0*3E
690$GPRMC,092350.00,A,4225.113125,N,00153.711510,E,041.4,067.5,200111,,*38
691$GPGGA,092351.00,4225.117753,N,00153.725797,E,1,08,1.0,1187.0,M,,M,,*41
692$PGLOR,STA,092351.00,1.209,0.000,-1178,1,10,3,PWR,D,N*7A
693$PGLOR,SIO,TxERR,0,RxERR,0,TxCNT,216,RxCNT,2852,DTMS,1012,DTIN,1,DTOUT,495*4B
694$GPGSA,A,3,03,06,11,14,16,19,22,24,,,,,2.2,1.0,2.0*38
695$PGLOR,FIX,1.0*3E
696$GPRMC,092351.00,A,4225.117753,N,00153.725797,E,041.3,066.5,200111,,*36
697$GPGGA,092352.00,4225.122290,N,00153.740000,E,1,04,0.5,1188.0,M,,M,,*43
698$PGLOR,STA,092352.00,1.209,0.000,-1178,1,5,0,PWR,D,N*4E
699$PGLOR,SIO,TxERR,0,RxERR,0,TxCNT,172,RxCNT,2680,DTMS,995,DTIN,1,DTOUT,495*7C
700$GPGSV,3,1,12,03,76,119,39,19,66,318,39,06,63,113,48,22,55,076,42*7A
701$GPGSV,3,2,12,16,24,178,40,24,22,255,34,11,19,268,41,14,10,119,38*74
702$GPGSV,3,3,12,18,27,048,,32,08,199,,08,07,311,,30,07,170,*7C
703$GPGSA,A,3,03,06,11,14,16,19,22,24,,,,,1.1,0.5,1.0*3F
704$PGLOR,FIX,1.0*3E
705$GPRMC,092352.00,A,4225.122290,N,00153.740000,E,041.3,066.5,200111,,*33
706$GPGGA,092353.00,4225.126755,N,00153.754211,E,1,07,0.5,1188.0,M,,M,,*4E
707$PGLOR,STA,092353.00,1.209,0.000,-1178,1,5,3,PWR,D,N*4C
708$PGLOR,SIO,TxERR,0,RxERR,0,TxCNT,120,RxCNT,2396,DTMS,1011,DTIN,0,DTOUT,495*4C
709$GPGSA,A,3,03,06,11,14,16,19,22,24,,,,,1.1,0.5,1.0*3F
710$PGLOR,FIX,1.0*3E
711$GPRMC,092353.00,A,4225.126755,N,00153.754211,E,041.2,066.8,200111,,*31
712$GPGGA,092354.00,4225.131431,N,00153.768450,E,1,07,0.5,1188.0,M,,M,,*42
713$PGLOR,STA,092354.00,1.209,0.000,-1178,1,5,3,PWR,D,N*4B
714$PGLOR,SIO,TxERR,0,RxERR,0,TxCNT,96,RxCNT,2236,DTMS,998,DTIN,0,DTOUT,495*42
715$GPGSA,A,3,03,06,11,14,16,19,22,,,,,,1.1,0.5,1.0*39
716$PGLOR,FIX,1.0*3E
717$GPRMC,092354.00,A,4225.131431,N,00153.768450,E,041.2,066.3,200111,,*36
718$GPGGA,092355.00,4225.136139,N,00153.782749,E,1,07,0.5,1188.0,M,,M,,*46
719$PGLOR,STA,092355.00,1.209,0.000,-1179,1,5,3,PWR,D,N*4B
720$PGLOR,SIO,TxERR,0,RxERR,0,TxCNT,124,RxCNT,2480,DTMS,1000,DTIN,1,DTOUT,495*49
721$GPGSA,A,3,03,06,11,14,16,19,22,,,,,,1.1,0.5,1.0*39
722$PGLOR,FIX,1.0*3E
723$GPRMC,092355.00,A,4225.136139,N,00153.782749,E,041.2,066.3,200111,,*32
724$GPGGA,092356.00,4225.141165,N,00153.797038,E,1,07,0.5,1189.0,M,,M,,*48
725$PGLOR,STA,092356.00,1.209,0.000,-1180,1,5,3,PWR,D,N*4E
726$PGLOR,SIO,TxERR,0,RxERR,0,TxCNT,116,RxCNT,2016,DTMS,996,DTIN,0,DTOUT,495*75
727$GPGSA,A,3,03,06,11,14,16,19,22,,,,,,1.1,0.5,1.0*39
728$PGLOR,FIX,1.0*3E
729$GPRMC,092356.00,A,4225.141165,N,00153.797038,E,041.3,065.7,200111,,*3B
730$GPGGA,092357.00,4225.146184,N,00153.811231,E,1,07,0.5,1189.0,M,,M,,*4B
731$PGLOR,STA,092357.00,1.209,0.000,-1179,1,5,3,PWR,D,N*49
732$PGLOR,SIO,TxERR,0,RxERR,0,TxCNT,124,RxCNT,2124,DTMS,1000,DTIN,1,DTOUT,495*42
733$GPGSV,3,1,12,03,76,119,43,19,66,318,39,06,63,113,48,22,55,076,43*76
734$GPGSV,3,2,12,16,24,178,45,11,19,269,41,14,10,119,41,18,27,048,*7D
735$GPGSV,3,3,12,24,22,255,,32,08,199,,08,07,311,,30,07,170,*78
736$GPGSA,A,3,03,06,11,14,16,19,22,,,,,,1.1,0.5,1.0*39
737$PGLOR,FIX,1.0*3E
738$GPRMC,092357.00,A,4225.146184,N,00153.811231,E,041.2,065.3,200111,,*3D
739$GPGGA,092358.00,4225.151121,N,00153.825363,E,1,08,0.5,1189.0,M,,M,,*43
740$PGLOR,STA,092358.00,1.209,0.000,-1179,1,5,3,PWR,D,N*46
741$PGLOR,SIO,TxERR,0,RxERR,0,TxCNT,296,RxCNT,2068,DTMS,992,DTIN,2,DTOUT,495*71
742$GPGSA,A,3,03,06,11,14,16,18,19,22,,,,,1.1,0.5,1.0*30
743$PGLOR,FIX,1.0*3E
744$GPRMC,092358.00,A,4225.151121,N,00153.825363,E,041.1,065.2,200111,,*38
745$GPGGA,092359.00,4225.155972,N,00153.839389,E,1,08,0.5,1189.0,M,,M,,*41
746$PGLOR,STA,092359.00,1.209,0.000,-1179,1,5,3,PWR,D,N*47
747$PGLOR,SIO,TxERR,0,RxERR,0,TxCNT,136,RxCNT,1452,DTMS,1000,DTIN,1,DTOUT,495*46
748$GPGSA,A,3,03,06,11,14,16,18,19,22,,,,,1.1,0.5,1.0*30
749$PGLOR,FIX,1.0*3E
750$GPRMC,092359.00,A,4225.155972,N,00153.839389,E,041.0,065.1,200111,,*38
751$GPGGA,092400.00,4225.160797,N,00153.853306,E,1,08,0.5,1190.0,M,,M,,*4A
752$PGLOR,STA,092400.00,1.209,0.000,-1178,1,5,3,PWR,D,N*4D
753$PGLOR,SIO,TxERR,0,RxERR,0,TxCNT,200,RxCNT,1396,DTMS,999,DTIN,1,DTOUT,495*77
754$GPGSA,A,3,03,06,11,14,16,18,19,22,,,,,1.1,0.5,1.0*30
755$PGLOR,FIX,1.0*3E
756$GPRMC,092400.00,A,4225.160797,N,00153.853306,E,040.9,064.8,200111,,*3B
757$GPGGA,092401.00,4225.165671,N,00153.867121,E,1,08,0.5,1190.0,M,,M,,*47
758$PGLOR,STA,092401.00,1.209,0.000,-1179,1,5,3,PWR,D,N*4D
759$PGLOR,SIO,TxERR,0,RxERR,0,TxCNT,124,RxCNT,1652,DTMS,999,DTIN,1,DTOUT,495*7F
760$GPGSA,A,3,03,06,11,14,16,18,19,22,,,,,1.1,0.5,1.0*30
761$PGLOR,FIX,1.0*3E
762$GPRMC,092401.00,A,4225.165671,N,00153.867121,E,040.8,064.5,200111,,*3A
763$GPGGA,092402.00,4225.170680,N,00153.880692,E,1,08,0.5,1190.0,M,,M,,*48
764$PGLOR,STA,092402.00,1.209,0.000,-1178,1,5,3,PWR,D,N*4F
765$PGLOR,SIO,TxERR,0,RxERR,0,TxCNT,104,RxCNT,1212,DTMS,1002,DTIN,0,DTOUT,495*46
766$GPGSV,3,1,12,03,76,119,43,19,66,318,39,06,63,113,48,22,55,076,44*71
767$GPGSV,3,2,12,18,27,048,46,16,24,178,45,11,19,269,41,14,10,118,42*7D
768$GPGSV,3,3,12,24,22,255,,32,08,199,,08,07,311,,30,07,170,*78
769$GPGSA,A,3,03,06,11,14,16,18,19,22,,,,,1.1,0.5,1.0*30
770$PGLOR,FIX,1.0*3E
771$GPRMC,092402.00,A,4225.170680,N,00153.880692,E,040.6,063.4,200111,,*3D
772$GPGGA,092403.00,4225.175798,N,00153.894080,E,1,08,0.5,1190.0,M,,M,,*44
773$PGLOR,STA,092403.00,1.209,0.000,-1177,1,5,3,PWR,D,N*41
774$PGLOR,SIO,TxERR,0,RxERR,0,TxCNT,84,RxCNT,1472,DTMS,1000,DTIN,0,DTOUT,495*7D
775$GPGSA,A,3,03,06,11,14,16,18,19,22,,,,,1.1,0.5,1.0*30
776$PGLOR,FIX,1.0*3E
777$GPRMC,092403.00,A,4225.175798,N,00153.894080,E,040.4,062.5,200111,,*33
778$GPGGA,092404.00,4225.180836,N,00153.907278,E,1,08,0.5,1191.0,M,,M,,*4D
779$PGLOR,STA,092404.00,1.209,0.000,-1177,1,5,3,PWR,D,N*46
780$PGLOR,SIO,TxERR,0,RxERR,0,TxCNT,100,RxCNT,1576,DTMS,1006,DTIN,1,DTOUT,495*42
781$GPGSA,A,3,03,06,11,14,16,18,19,22,,,,,1.1,0.5,1.0*30
782$PGLOR,FIX,1.0*3E
783$GPRMC,092404.00,A,4225.180836,N,00153.907278,E,040.2,062.6,200111,,*3E
784$GPGGA,092405.00,4225.185975,N,00153.920398,E,1,08,1.0,1191.0,M,,M,,*41
785$PGLOR,STA,092405.00,1.209,0.000,-1177,1,10,3,PWR,D,N*73
786$PGLOR,SIO,TxERR,0,RxERR,0,TxCNT,108,RxCNT,1352,DTMS,994,DTIN,0,DTOUT,495*78
787$GPGSA,A,3,03,06,11,14,16,18,19,22,,,,,2.2,1.0,2.0*37
788$PGLOR,FIX,1.0*3E
789$GPRMC,092405.00,A,4225.185975,N,00153.920398,E,039.8,062.5,200111,,*31
790$GPGGA,092406.00,4225.191092,N,00153.933441,E,1,07,0.5,1191.0,M,,M,,*4D
791$PGLOR,STA,092406.00,1.209,0.000,-1177,1,5,3,PWR,D,N*44
792$PGLOR,SIO,TxERR,0,RxERR,0,TxCNT,148,RxCNT,1628,DTMS,997,DTIN,1,DTOUT,495*76
793$GPGSA,A,3,03,06,11,14,16,18,19,22,,,,,1.1,0.5,1.0*30
794$PGLOR,FIX,1.0*3E
795$GPRMC,092406.00,A,4225.191092,N,00153.933441,E,039.5,062.4,200111,,*3A
796$GPGGA,092407.00,4225.196129,N,00153.946302,E,1,07,0.5,1191.0,M,,M,,*48
797$PGLOR,STA,092407.00,1.209,0.000,-1176,1,5,3,PWR,D,N*44
798$PGLOR,SIO,TxERR,0,RxERR,0,TxCNT,84,RxCNT,1028,DTMS,999,DTIN,0,DTOUT,495*4E
799$GPGSV,3,1,12,03,76,119,43,19,66,318,39,06,63,113,48,22,54,075,44*73
800$GPGSV,3,2,12,18,27,048,47,16,24,178,45,11,19,269,31,14,10,118,44*7D
801$GPGSV,3,3,12,24,22,255,,32,08,199,,08,07,311,,30,07,170,*78
802$GPGSA,A,3,03,06,11,14,16,18,19,22,,,,,1.1,0.5,1.0*30
803$PGLOR,FIX,1.0*3E
804$GPRMC,092407.00,A,4225.196129,N,00153.946302,E,039.1,062.3,200111,,*3C
805$GPGGA,092408.00,4225.201044,N,00153.958971,E,1,07,0.5,1191.0,M,,M,,*41
806$PGLOR,STA,092408.00,1.209,0.000,-1175,1,5,3,PWR,D,N*48
807$PGLOR,SIO,TxERR,0,RxERR,0,TxCNT,132,RxCNT,968,DTMS,1001,DTIN,1,DTOUT,495*76
808$GPGSA,A,3,03,06,14,16,18,19,22,,,,,,1.1,0.5,1.0*30
809$PGLOR,FIX,1.0*3E
810$GPRMC,092408.00,A,4225.201044,N,00153.958971,E,038.8,062.1,200111,,*3F
811$GPGGA,092409.00,4225.205939,N,00153.971492,E,1,07,0.5,1191.0,M,,M,,*4C
812$PGLOR,STA,092409.00,1.209,0.000,-1175,1,5,3,PWR,D,N*49
813$PGLOR,SIO,TxERR,0,RxERR,0,TxCNT,84,RxCNT,1064,DTMS,999,DTIN,0,DTOUT,495*46
814$GPGSA,A,3,03,06,14,16,18,19,22,,,,,,1.1,0.5,1.0*30
815$PGLOR,FIX,1.0*3E
816$GPRMC,092409.00,A,4225.205939,N,00153.971492,E,038.5,062.0,200111,,*3E
817$GPGGA,092410.00,4225.210815,N,00153.983939,E,1,07,0.5,1192.0,M,,M,,*4D
818$PGLOR,STA,092410.00,1.209,0.000,-1174,1,5,3,PWR,D,N*40
819$PGLOR,SIO,TxERR,0,RxERR,0,TxCNT,276,RxCNT,1476,DTMS,1000,DTIN,2,DTOUT,495*44
820$GPGSA,A,3,03,06,14,16,18,19,22,,,,,,1.1,0.5,1.0*30
821$PGLOR,FIX,1.0*3E
822$GPRMC,092410.00,A,4225.210815,N,00153.983939,E,038.3,062.0,200111,,*3A
823$GPGGA,092411.00,4225.215678,N,00153.996259,E,1,07,0.5,1192.0,M,,M,,*45
824$PGLOR,STA,092411.00,1.209,0.000,-1174,1,5,3,PWR,D,N*41
825$PGLOR,SIO,TxERR,0,RxERR,0,TxCNT,300,RxCNT,1828,DTMS,1000,DTIN,1,DTOUT,495*40
826$GPGSA,A,3,03,06,14,16,18,19,22,,,,,,1.1,0.5,1.0*30
827$PGLOR,FIX,1.0*3E
828$GPRMC,092411.00,A,4225.215678,N,00153.996259,E,038.2,061.9,200111,,*39
829$GPGGA,092412.00,4225.220551,N,00154.008639,E,1,08,1.0,1192.0,M,,M,,*48
830$PGLOR,STA,092412.00,1.209,0.000,-1174,1,10,3,PWR,D,N*76
831$PGLOR,SIO,TxERR,0,RxERR,0,TxCNT,260,RxCNT,1848,DTMS,1007,DTIN,2,DTOUT,495*45
832$GPGSV,3,1,12,03,76,119,43,19,66,318,39,06,63,113,48,22,54,075,44*73
833$GPGSV,3,2,12,18,27,048,47,16,24,178,45,14,10,118,44,32,08,199,29*79
834$GPGSV,3,3,12,24,22,255,,11,19,269,,08,07,311,,30,07,170,*75
835$GPGSA,A,3,03,06,14,16,18,19,22,32,,,,,2.2,1.0,2.0*36
836$PGLOR,FIX,1.0*3E
837$GPRMC,092412.00,A,4225.220551,N,00154.008639,E,038.1,062.0,200111,,*36
838$GPGGA,092413.00,4225.225507,N,00154.020706,E,1,08,1.0,1192.0,M,,M,,*48
839$PGLOR,STA,092413.00,1.209,0.000,-1174,1,10,3,PWR,D,N*77
840$PGLOR,SIO,TxERR,0,RxERR,0,TxCNT,380,RxCNT,1844,DTMS,995,DTIN,2,DTOUT,495*75
841$GPGSA,A,3,03,06,14,16,18,19,22,24,32,,,,2.2,1.0,2.0*30
842$PGLOR,FIX,1.0*3E
843$GPRMC,092413.00,A,4225.225507,N,00154.020706,E,037.9,061.1,200111,,*33
844$GPGGA,092414.00,4225.230419,N,00154.032648,E,1,08,0.5,1192.0,M,,M,,*49
845$PGLOR,STA,092414.00,1.209,0.000,-1174,1,5,3,PWR,D,N*44
846$PGLOR,SIO,TxERR,0,RxERR,0,TxCNT,372,RxCNT,1944,DTMS,1002,DTIN,2,DTOUT,495*4F
847$GPGSA,A,3,03,06,14,16,18,19,22,24,30,32,,,1.1,0.5,1.0*34
848$PGLOR,FIX,1.0*3E
849$GPRMC,092414.00,A,4225.230419,N,00154.032648,E,037.8,061.3,200111,,*35
850$GPGGA,092415.00,4225.235321,N,00154.044591,E,1,08,0.5,1192.0,M,,M,,*47
851$PGLOR,STA,092415.00,1.209,0.000,-1174,1,5,3,PWR,D,N*45
852$PGLOR,SIO,TxERR,0,RxERR,0,TxCNT,120,RxCNT,1772,DTMS,1006,DTIN,0,DTOUT,495*47
853$GPGSA,A,3,03,06,14,16,18,19,22,24,30,32,,,1.1,0.5,1.0*34
854$PGLOR,FIX,1.0*3E
855$GPRMC,092415.00,A,4225.235321,N,00154.044591,E,037.7,061.4,200111,,*33
856$GPGGA,092416.00,4225.240255,N,00154.056593,E,1,08,0.5,1193.0,M,,M,,*44
857$PGLOR,STA,092416.00,1.209,0.000,-1174,1,5,3,PWR,D,N*46
858$PGLOR,SIO,TxERR,0,RxERR,0,TxCNT,108,RxCNT,1604,DTMS,992,DTIN,0,DTOUT,495*78
859$GPGSA,A,3,03,06,14,16,18,19,22,24,30,,,,1.1,0.5,1.0*35
860$PGLOR,FIX,1.0*3E
861$GPRMC,092416.00,A,4225.240255,N,00154.056593,E,037.7,061.6,200111,,*33
862$GPGGA,092417.00,4225.245159,N,00154.068671,E,1,08,0.5,1193.0,M,,M,,*4D
863$PGLOR,STA,092417.00,1.209,0.000,-1174,1,5,3,PWR,D,N*47
864$PGLOR,SIO,TxERR,0,RxERR,0,TxCNT,312,RxCNT,1472,DTMS,1003,DTIN,1,DTOUT,495*43
865$GPGSV,3,1,12,03,76,119,43,19,66,318,39,06,63,113,48,22,54,075,44*73
866$GPGSV,3,2,12,18,27,048,47,16,24,178,45,24,22,255,30,14,10,118,44*7D
867$GPGSV,3,3,12,30,07,170,34,32,08,199,12,11,19,269,,08,07,311,*7D
868$GPGSA,A,3,03,06,14,16,18,19,22,24,30,,,,1.1,0.5,1.0*35
869$PGLOR,FIX,1.0*3E
870$GPRMC,092417.00,A,4225.245159,N,00154.068671,E,037.7,061.6,200111,,*3A
871$GPGGA,092418.00,4225.250135,N,00154.080878,E,1,08,0.5,1193.0,M,,M,,*4D
872$PGLOR,STA,092418.00,1.209,0.000,-1174,1,5,3,PWR,D,N*48
873$PGLOR,SIO,TxERR,0,RxERR,0,TxCNT,132,RxCNT,1240,DTMS,999,DTIN,0,DTOUT,495*7E
874$GPGSA,A,3,03,06,14,16,18,19,22,24,30,,,,1.1,0.5,1.0*35
875$PGLOR,FIX,1.0*3E
876$GPRMC,092418.00,A,4225.250135,N,00154.080878,E,037.9,061.5,200111,,*37
877$GPGGA,092419.00,4225.255192,N,00154.093257,E,1,08,0.5,1193.0,M,,M,,*41
878$PGLOR,STA,092419.00,1.209,0.000,-1174,1,5,3,PWR,D,N*49
879$PGLOR,SIO,TxERR,0,RxERR,0,TxCNT,284,RxCNT,1112,DTMS,998,DTIN,2,DTOUT,495*77
880$GPGSA,A,3,03,06,14,16,18,19,22,24,30,,,,1.1,0.5,1.0*35
881$PGLOR,FIX,1.0*3E
882$GPRMC,092419.00,A,4225.255192,N,00154.093257,E,038.1,061.5,200111,,*3C
883$GPGGA,092420.00,4225.260267,N,00154.105812,E,1,08,0.5,1193.0,M,,M,,*41
884$PGLOR,STA,092420.00,1.209,0.000,-1174,1,5,3,PWR,D,N*43
885$PGLOR,SIO,TxERR,0,RxERR,0,TxCNT,168,RxCNT,1160,DTMS,1000,DTIN,1,DTOUT,495*49
886$GPGSA,A,3,03,06,14,16,18,19,22,24,30,,,,1.1,0.5,1.0*35
887$PGLOR,FIX,1.0*3E
888$GPRMC,092420.00,A,4225.260267,N,00154.105812,E,038.3,061.8,200111,,*33
889$GPGGA,092421.00,4225.265358,N,00154.118453,E,1,08,0.5,1193.0,M,,M,,*4D
890$PGLOR,STA,092421.00,1.209,0.000,-1174,1,5,3,PWR,D,N*42
891$PGLOR,SIO,TxERR,0,RxERR,0,TxCNT,96,RxCNT,1056,DTMS,1000,DTIN,0,DTOUT,495*7C
892$GPGSA,A,3,03,06,14,16,18,19,22,24,30,,,,1.1,0.5,1.0*35
893$PGLOR,FIX,1.0*3E
894$GPRMC,092421.00,A,4225.265358,N,00154.118453,E,038.4,061.8,200111,,*38
895$GPGGA,092422.00,4225.270544,N,00154.131202,E,1,08,1.0,1193.0,M,,M,,*4C
896$PGLOR,STA,092422.00,1.209,0.000,-1174,1,10,3,PWR,D,N*75
897$PGLOR,SIO,TxERR,0,RxERR,0,TxCNT,108,RxCNT,1292,DTMS,1002,DTIN,1,DTOUT,495*43
898$GPGSV,3,1,12,03,76,119,43,19,66,318,39,06,63,114,48,22,54,075,44*74
899$GPGSV,3,2,12,18,27,048,47,16,24,178,44,14,10,118,42,30,07,170,36*7A
900$GPGSV,3,3,12,24,22,255,17,11,19,269,,32,08,199,,08,07,311,*79
901$GPGSA,A,3,03,06,14,16,18,19,22,30,,,,,2.2,1.0,2.0*34
902$PGLOR,FIX,1.0*3E
903$GPRMC,092422.00,A,4225.270544,N,00154.131202,E,038.6,061.5,200111,,*32
904$GPGGA,092423.00,4225.275739,N,00154.144073,E,1,07,0.5,1193.0,M,,M,,*4D
905$PGLOR,STA,092423.00,1.209,0.000,-1174,1,5,3,PWR,D,N*40
906$PGLOR,SIO,TxERR,0,RxERR,0,TxCNT,220,RxCNT,1388,DTMS,996,DTIN,1,DTOUT,495*75
907$GPGSA,A,3,03,06,14,16,18,19,22,30,,,,,1.1,0.5,1.0*33
908$PGLOR,FIX,1.0*3E
909$GPRMC,092423.00,A,4225.275739,N,00154.144073,E,038.8,061.9,200111,,*3A
910$GPGGA,092424.00,4225.280872,N,00154.157072,E,1,07,1.0,1193.0,M,,M,,*47
911$PGLOR,STA,092424.00,1.209,0.000,-1174,1,10,3,PWR,D,N*73
912$PGLOR,SIO,TxERR,0,RxERR,0,TxCNT,72,RxCNT,1232,DTMS,1000,DTIN,0,DTOUT,495*76
913$GPGSA,A,3,03,06,14,16,18,19,22,30,,,,,2.2,1.0,2.0*34
914$PGLOR,FIX,1.0*3E
915$GPRMC,092424.00,A,4225.280872,N,00154.157072,E,039.0,062.4,200111,,*33
916$GPGGA,092425.00,4225.286094,N,00154.170092,E,1,08,0.5,1193.0,M,,M,,*40
917$PGLOR,STA,092425.00,1.209,0.000,-1174,1,5,3,PWR,D,N*46
918$PGLOR,SIO,TxERR,0,RxERR,0,TxCNT,344,RxCNT,1592,DTMS,1006,DTIN,3,DTOUT,495*48
919$GPGSA,A,3,03,06,14,16,18,19,22,30,,,,,1.1,0.5,1.0*33
920$PGLOR,FIX,1.0*3E
921$GPRMC,092425.00,A,4225.286094,N,00154.170092,E,039.0,062.0,200111,,*3B
922$GPGGA,092426.00,4225.291303,N,00154.183261,E,1,08,0.5,1193.0,M,,M,,*4A
923$PGLOR,STA,092426.00,1.209,0.000,-1174,1,5,3,PWR,D,N*45
924$PGLOR,SIO,TxERR,0,RxERR,0,TxCNT,348,RxCNT,1180,DTMS,998,DTIN,3,DTOUT,495*7C
925$GPGSA,A,3,03,06,11,14,16,18,19,22,30,,,,1.1,0.5,1.0*33
926$PGLOR,FIX,1.0*3E
927$GPRMC,092426.00,A,4225.291303,N,00154.183261,E,039.2,062.0,200111,,*33
928$GPGGA,092427.00,4225.296647,N,00154.196374,E,1,08,0.5,1193.0,M,,M,,*48
929$PGLOR,STA,092427.00,1.209,0.000,-1174,1,5,3,PWR,D,N*44
930$PGLOR,SIO,TxERR,0,RxERR,0,TxCNT,216,RxCNT,1408,DTMS,999,DTIN,1,DTOUT,495*70
931$GPGSV,3,1,12,03,76,119,43,19,66,318,40,06,63,114,48,22,54,075,44*7A
932$GPGSV,3,2,12,18,27,048,47,16,24,178,44,11,19,269,37,14,10,118,43*7D
933$GPGSV,3,3,12,30,07,170,36,24,22,255,,32,08,199,,08,07,310,*7C
934$GPGSA,A,3,03,06,11,14,16,18,19,22,30,,,,1.1,0.5,1.0*33
935$PGLOR,FIX,1.0*3E
936$GPRMC,092427.00,A,4225.296647,N,00154.196374,E,039.3,061.5,200111,,*36
937$GPGGA,092428.00,4225.301917,N,00154.209703,E,1,08,0.5,1193.0,M,,M,,*43
938$PGLOR,STA,092428.00,1.209,0.000,-1174,1,5,3,PWR,D,N*4B
939$PGLOR,SIO,TxERR,0,RxERR,0,TxCNT,136,RxCNT,1308,DTMS,1000,DTIN,1,DTOUT,495*4E
940$GPGSA,A,3,03,06,11,14,16,18,19,22,30,,,,1.1,0.5,1.0*33
941$PGLOR,FIX,1.0*3E
942$GPRMC,092428.00,A,4225.301917,N,00154.209703,E,039.4,061.5,200111,,*3A
943$GPGGA,092429.00,4225.307130,N,00154.223165,E,1,08,0.5,1192.0,M,,M,,*46
944$PGLOR,STA,092429.00,1.209,0.000,-1174,1,5,3,PWR,D,N*4A
945$PGLOR,SIO,TxERR,0,RxERR,0,TxCNT,120,RxCNT,1304,DTMS,1000,DTIN,0,DTOUT,495*44
946$GPGSA,A,3,03,06,11,14,16,18,19,22,30,,,,1.1,0.5,1.0*33
947$PGLOR,FIX,1.0*3E
948$GPRMC,092429.00,A,4225.307130,N,00154.223165,E,039.3,061.5,200111,,*39
949$GPGGA,092430.00,4225.312277,N,00154.236660,E,1,08,0.5,1192.0,M,,M,,*4C
950$PGLOR,STA,092430.00,1.209,0.000,-1174,1,5,3,PWR,D,N*42
951$PGLOR,SIO,TxERR,0,RxERR,0,TxCNT,132,RxCNT,1480,DTMS,999,DTIN,0,DTOUT,495*74
952$GPGSA,A,3,03,06,11,14,16,18,19,22,30,,,,1.1,0.5,1.0*33
953$PGLOR,FIX,1.0*3E
954$GPRMC,092430.00,A,4225.312277,N,00154.236660,E,039.3,061.5,200111,,*33
955$GPGGA,092431.00,4225.317408,N,00154.250083,E,1,08,0.5,1193.0,M,,M,,*4C
956$PGLOR,STA,092431.00,1.209,0.000,-1174,1,5,3,PWR,D,N*43
957$PGLOR,SIO,TxERR,0,RxERR,0,TxCNT,148,RxCNT,1416,DTMS,1001,DTIN,1,DTOUT,495*4E
958$GPGSA,A,3,03,06,11,14,16,18,19,22,30,,,,1.1,0.5,1.0*33
959$PGLOR,FIX,1.0*3E
960$GPRMC,092431.00,A,4225.317408,N,00154.250083,E,039.2,061.4,200111,,*32
961$GPGGA,092432.00,4225.322568,N,00154.263267,E,1,08,0.5,1192.0,M,,M,,*47
962$PGLOR,STA,092432.00,1.209,0.000,-1173,1,5,3,PWR,D,N*47
963$PGLOR,SIO,TxERR,0,RxERR,0,TxCNT,104,RxCNT,1296,DTMS,1001,DTIN,0,DTOUT,495*49
964$GPGSV,3,1,12,03,76,119,43,19,66,318,40,06,63,114,48,22,54,075,44*7A
965$GPGSV,3,2,12,18,27,048,47,16,24,178,44,11,19,269,38,14,10,118,43*72
966$GPGSV,3,3,12,30,07,170,36,24,22,255,,32,08,199,,08,07,310,*7C
967$GPGSA,A,3,03,06,11,14,16,18,19,22,30,,,,1.1,0.5,1.0*33
968$PGLOR,FIX,1.0*3E
969$GPRMC,092432.00,A,4225.322568,N,00154.263267,E,039.2,061.5,200111,,*39
970$GPGGA,092433.00,4225.327745,N,00154.276383,E,1,08,0.5,1192.0,M,,M,,*41
971$PGLOR,STA,092433.00,1.209,0.000,-1172,1,5,3,PWR,D,N*47
972$PGLOR,SIO,TxERR,0,RxERR,0,TxCNT,124,RxCNT,1536,DTMS,999,DTIN,1,DTOUT,495*7E
973$PGLOR,PFM,HAL,P,0,0,100,0,RF,F,-123,0.8,62,RTC,12.9,P,STO,P,LTO,F*40
974$GPGSA,A,3,03,06,11,14,16,18,19,22,30,,,,1.1,0.5,1.0*33
975$PGLOR,FIX,1.0*3E
976$GPRMC,092433.00,A,4225.327745,N,00154.276383,E,039.1,061.1,200111,,*38
977$GPGGA,092434.00,4225.332839,N,00154.289495,E,1,08,0.5,1193.0,M,,M,,*47
978$PGLOR,STA,092434.00,1.209,0.000,-1172,1,5,3,PWR,D,N*40
979$PGLOR,SIO,TxERR,0,RxERR,0,TxCNT,204,RxCNT,1256,DTMS,1002,DTIN,1,DTOUT,495*44
980$GPGSA,A,3,03,06,11,14,16,18,19,22,30,,,,1.1,0.5,1.0*33
981$PGLOR,FIX,1.0*3E
982$GPRMC,092434.00,A,4225.332839,N,00154.289495,E,039.1,061.6,200111,,*38
983$GPGGA,092435.00,4225.337944,N,00154.302646,E,1,08,0.5,1193.0,M,,M,,*46
984$PGLOR,STA,092435.00,1.209,0.000,-1172,1,5,3,PWR,D,N*41
985$PGLOR,SIO,TxERR,0,RxERR,0,TxCNT,244,RxCNT,1432,DTMS,998,DTIN,1,DTOUT,495*7F
986$GPGSA,A,3,03,06,11,14,16,18,19,22,30,,,,1.1,0.5,1.0*33
987$PGLOR,FIX,1.0*3E
988$GPRMC,092435.00,A,4225.337944,N,00154.302646,E,039.2,061.8,200111,,*34
989$GPGGA,092436.00,4225.343032,N,00154.315807,E,1,08,0.5,1193.0,M,,M,,*43
990$PGLOR,STA,092436.00,1.209,0.000,-1172,1,5,3,PWR,D,N*42
991$PGLOR,SIO,TxERR,0,RxERR,0,TxCNT,268,RxCNT,1396,DTMS,1001,DTIN,2,DTOUT,495*43
992$GPGSA,A,3,03,06,11,14,16,18,19,22,30,32,,,1.1,0.5,1.0*32
993$PGLOR,FIX,1.0*3E
994$GPRMC,092436.00,A,4225.343032,N,00154.315807,E,039.2,061.8,200111,,*31
995$GPGGA,092437.00,4225.348070,N,00154.328951,E,1,08,0.5,1193.0,M,,M,,*43
996$PGLOR,STA,092437.00,1.209,0.000,-1173,1,5,3,PWR,D,N*42
997$PGLOR,SIO,TxERR,0,RxERR,0,TxCNT,352,RxCNT,1744,DTMS,1004,DTIN,1,DTOUT,495*46
998$GPGSV,3,1,12,03,76,119,43,19,66,318,40,06,63,114,48,22,54,075,44*7A
999$GPGSV,3,2,12,18,26,048,47,16,24,178,44,11,19,269,38,14,10,118,41*71
1000$GPGSV,3,3,12,32,08,199,29,30,07,170,33,24,22,255,,08,07,310,*72
1001$GPGSA,A,3,03,06,11,14,16,18,19,22,30,32,,,1.1,0.5,1.0*32
1002$PGLOR,FIX,1.0*3E
1003$GPRMC,092437.00,A,4225.348070,N,00154.328951,E,039.1,062.5,200111,,*3C
1004$GPGGA,092438.00,4225.353151,N,00154.342011,E,1,07,0.5,1193.0,M,,M,,*4A
1005$PGLOR,STA,092438.00,1.209,0.000,-1172,1,5,3,PWR,D,N*4C
1006$PGLOR,SIO,TxERR,0,RxERR,0,TxCNT,104,RxCNT,1396,DTMS,993,DTIN,1,DTOUT,495*7A
1007$GPGSA,A,3,03,06,11,14,16,18,19,22,30,32,,,1.1,0.5,1.0*32
1008$PGLOR,FIX,1.0*3E
1009$GPRMC,092438.00,A,4225.353151,N,00154.342011,E,039.1,061.9,200111,,*35
1010$GPGGA,092439.00,4225.358193,N,00154.354866,E,1,08,1.0,1193.0,M,,M,,*4A
1011$PGLOR,STA,092439.00,1.209,0.000,-1172,1,10,3,PWR,D,N*79
1012$PGLOR,SIO,TxERR,0,RxERR,0,TxCNT,464,RxCNT,1584,DTMS,1001,DTIN,2,DTOUT,495*4C
1013$GPGSA,A,3,03,06,11,14,16,18,19,22,30,32,,,2.2,1.0,2.0*35
1014$PGLOR,FIX,1.0*3E
1015$GPRMC,092439.00,A,4225.358193,N,00154.354866,E,038.7,061.5,200111,,*35
1016$GPGGA,092440.00,4225.363285,N,00154.367645,E,1,08,1.0,1193.0,M,,M,,*47
1017$PGLOR,STA,092440.00,1.209,0.000,-1173,1,10,3,PWR,D,N*76
1018$PGLOR,SIO,TxERR,0,RxERR,0,TxCNT,392,RxCNT,1600,DTMS,1001,DTIN,2,DTOUT,495*4D
1019$GPGSA,A,3,03,06,11,16,18,19,22,24,30,32,,,2.2,1.0,2.0*36
1020$PGLOR,FIX,1.0*3E
1021$GPRMC,092440.00,A,4225.363285,N,00154.367645,E,038.5,061.0,200111,,*3F
1022$GPGGA,092441.00,4225.368206,N,00154.380395,E,1,08,1.0,1193.0,M,,M,,*47
1023$PGLOR,STA,092441.00,1.209,0.000,-1172,1,10,3,PWR,D,N*76
1024$PGLOR,SIO,TxERR,0,RxERR,0,TxCNT,108,RxCNT,1424,DTMS,999,DTIN,1,DTOUT,495*72
1025$GPGSA,A,3,03,06,11,16,18,19,22,24,30,32,,,2.2,1.0,2.0*36
1026$PGLOR,FIX,1.0*3E
1027$GPRMC,092441.00,A,4225.368206,N,00154.380395,E,038.4,061.9,200111,,*37
1028$GPGGA,092442.00,4225.373274,N,00154.393051,E,1,08,0.5,1193.0,M,,M,,*46
1029$PGLOR,STA,092442.00,1.209,0.000,-1172,1,5,3,PWR,D,N*41
1030$PGLOR,SIO,TxERR,0,RxERR,0,TxCNT,532,RxCNT,1672,DTMS,1000,DTIN,2,DTOUT,495*45
1031$GPGSV,3,1,12,03,76,119,43,19,66,318,40,06,63,114,48,22,54,075,44*7A
1032$GPGSV,3,2,12,18,26,048,47,16,24,178,43,24,22,255,32,11,19,269,37*75
1033$GPGSV,3,3,12,32,08,199,29,30,07,170,17,14,10,118,,08,07,310,*7C
1034$GPGSA,A,3,03,06,11,16,18,19,22,24,32,,,,1.1,0.5,1.0*32
1035$PGLOR,FIX,1.0*3E
1036$GPRMC,092442.00,A,4225.373274,N,00154.393051,E,038.4,061.2,200111,,*39
1037$GPGGA,092443.00,4225.378199,N,00154.405786,E,1,07,0.5,1193.0,M,,M,,*46
1038$PGLOR,STA,092443.00,1.209,0.000,-1171,1,5,3,PWR,D,N*43
1039$PGLOR,SIO,TxERR,0,RxERR,0,TxCNT,368,RxCNT,2092,DTMS,999,DTIN,1,DTOUT,495*7C
1040$GPGSA,A,3,03,06,11,16,18,19,22,24,32,,,,1.1,0.5,1.0*32
1041$PGLOR,FIX,1.0*3E
1042$GPRMC,092443.00,A,4225.378199,N,00154.405786,E,038.3,061.9,200111,,*3A
1043$GPGGA,092444.00,4225.383183,N,00154.418521,E,1,08,0.5,1193.0,M,,M,,*42
1044$PGLOR,STA,092444.00,1.209,0.000,-1171,1,5,3,PWR,D,N*44
1045$PGLOR,SIO,TxERR,0,RxERR,0,TxCNT,276,RxCNT,1804,DTMS,1001,DTIN,2,DTOUT,495*4C
1046$GPGSA,A,3,03,06,11,16,18,19,22,24,32,,,,1.1,0.5,1.0*32
1047$PGLOR,FIX,1.0*3E
1048$GPRMC,092444.00,A,4225.383183,N,00154.418521,E,038.3,061.5,200111,,*3D
1049$GPGGA,092445.00,4225.388113,N,00154.431276,E,1,08,0.5,1193.0,M,,M,,*4F
1050$PGLOR,STA,092445.00,1.209,0.000,-1171,1,5,3,PWR,D,N*45
1051$PGLOR,SIO,TxERR,0,RxERR,0,TxCNT,296,RxCNT,1912,DTMS,1004,DTIN,2,DTOUT,495*41
1052$GPGSA,A,3,03,06,11,16,18,19,22,24,32,,,,1.1,0.5,1.0*32
1053$PGLOR,FIX,1.0*3E
1054$GPRMC,092445.00,A,4225.388113,N,00154.431276,E,038.4,062.0,200111,,*31
1055$GPGGA,092446.00,4225.393039,N,00154.443957,E,1,08,0.5,1193.0,M,,M,,*42
1056$PGLOR,STA,092446.00,1.209,0.000,-1171,1,5,3,PWR,D,N*46
1057$PGLOR,SIO,TxERR,0,RxERR,0,TxCNT,108,RxCNT,1324,DTMS,997,DTIN,1,DTOUT,495*7B
1058$GPGSA,A,3,03,06,11,16,18,19,22,24,32,,,,1.1,0.5,1.0*32
1059$PGLOR,FIX,1.0*3E
1060$GPRMC,092446.00,A,4225.393039,N,00154.443957,E,038.2,062.1,200111,,*3B
1061$GPGGA,092447.00,4225.397973,N,00154.456508,E,1,08,0.5,1192.0,M,,M,,*43
1062$PGLOR,STA,092447.00,1.209,0.000,-1171,1,5,3,PWR,D,N*47
1063$PGLOR,SIO,TxERR,0,RxERR,0,TxCNT,108,RxCNT,1460,DTMS,1001,DTIN,0,DTOUT,495*4A
1064$GPGSV,3,1,12,03,76,119,43,19,66,318,40,06,63,114,48,22,54,075,44*7A
1065$GPGSV,3,2,12,18,26,048,47,16,24,178,43,24,22,255,33,11,19,269,38*7B
1066$GPGSV,3,3,12,32,08,199,21,14,10,118,,30,07,170,,08,07,310,*72
1067$GPGSA,A,3,03,06,11,16,18,19,22,24,32,,,,1.1,0.5,1.0*32
1068$PGLOR,FIX,1.0*3E
1069$GPRMC,092447.00,A,4225.397973,N,00154.456508,E,038.1,062.0,200111,,*39
1070$GPGGA,092448.00,4225.402951,N,00154.468899,E,1,08,0.5,1193.0,M,,M,,*4E
1071$PGLOR,STA,092448.00,1.209,0.000,-1171,1,5,3,PWR,D,N*48
1072$PGLOR,SIO,TxERR,0,RxERR,0,TxCNT,124,RxCNT,1492,DTMS,999,DTIN,1,DTOUT,495*71
1073$GPGSA,A,3,03,06,11,16,18,19,22,24,,,,,1.1,0.5,1.0*33
1074$PGLOR,FIX,1.0*3E
1075$GPRMC,092448.00,A,4225.402951,N,00154.468899,E,037.8,061.7,200111,,*37
1076$GPGGA,092449.00,4225.411753,N,00154.490895,E,1,08,0.5,1193.0,M,,M,,*4A
1077$PGLOR,STA,092449.00,1.209,0.000,-1171,1,5,3,PWR,D,N*49
1078$PGLOR,SIO,TxERR,0,RxERR,0,TxCNT,96,RxCNT,1352,DTMS,999,DTIN,0,DTOUT,495*43
1079$GPGSA,A,3,03,06,11,16,18,19,22,24,,,,,1.1,0.5,1.0*33
1080$PGLOR,FIX,1.0*3E
1081$GPRMC,092449.00,A,4225.411753,N,00154.490895,E,037.6,061.7,200111,,*3D
1082$GPGGA,092450.00,4225.416727,N,00154.503073,E,1,08,0.5,1193.0,M,,M,,*4D
1083$PGLOR,STA,092450.00,1.209,0.000,-1170,1,5,3,PWR,D,N*40
1084$PGLOR,SIO,TxERR,0,RxERR,0,TxCNT,132,RxCNT,1608,DTMS,1001,DTIN,1,DTOUT,495*4E
1085$GPGSA,A,3,03,06,11,16,18,19,22,24,,,,,1.1,0.5,1.0*33
1086$PGLOR,FIX,1.0*3E
1087$GPRMC,092450.00,A,4225.416727,N,00154.503073,E,037.2,061.4,200111,,*3D
1088$GPGGA,092451.00,4225.421637,N,00154.515227,E,1,08,0.5,1193.0,M,,M,,*4C
1089$PGLOR,STA,092451.00,1.209,0.000,-1170,1,5,3,PWR,D,N*41
1090$PGLOR,SIO,TxERR,0,RxERR,0,TxCNT,96,RxCNT,1204,DTMS,999,DTIN,0,DTOUT,495*41
1091$GPGSA,A,3,03,06,11,16,18,19,22,24,,,,,1.1,0.5,1.0*33
1092$PGLOR,FIX,1.0*3E
1093$GPRMC,092451.00,A,4225.421637,N,00154.515227,E,037.0,061.4,200111,,*3E
1094$GPGGA,092452.00,4225.426572,N,00154.527451,E,1,08,0.5,1193.0,M,,M,,*4C
1095$PGLOR,STA,092452.00,1.209,0.000,-1170,1,5,3,PWR,D,N*42
1096$PGLOR,SIO,TxERR,0,RxERR,0,TxCNT,112,RxCNT,1228,DTMS,1000,DTIN,1,DTOUT,495*4B
1097$GPGSV,3,1,12,03,76,120,43,19,66,318,40,06,63,114,48,22,54,075,44*70
1098$GPGSV,3,2,12,18,26,048,47,16,24,178,43,24,22,255,35,11,19,269,38*7D
1099$GPGSV,3,3,12,14,10,118,,32,08,199,,08,07,310,,30,07,170,*71
1100$GPGSA,A,3,03,06,11,16,18,19,22,24,,,,,1.1,0.5,1.0*33
1101$PGLOR,FIX,1.0*3E
1102$GPRMC,092452.00,A,4225.426572,N,00154.527451,E,037.2,061.4,200111,,*3C
1103$GPGGA,092453.00,4225.431491,N,00154.539727,E,1,08,0.5,1193.0,M,,M,,*4A
1104$PGLOR,STA,092453.00,1.209,0.000,-1170,1,5,3,PWR,D,N*43
1105$PGLOR,SIO,TxERR,0,RxERR,0,TxCNT,112,RxCNT,1312,DTMS,1003,DTIN,0,DTOUT,495*41
1106$GPGSA,A,3,03,06,11,16,18,19,22,24,,,,,1.1,0.5,1.0*33
1107$PGLOR,FIX,1.0*3E
1108$GPRMC,092453.00,A,4225.431491,N,00154.539727,E,037.2,061.6,200111,,*38
1109$GPGGA,092454.00,4225.436371,N,00154.551971,E,1,08,0.5,1193.0,M,,M,,*40
1110$PGLOR,STA,092454.00,1.209,0.000,-1170,1,5,3,PWR,D,N*44
1111$PGLOR,SIO,TxERR,0,RxERR,0,TxCNT,108,RxCNT,1320,DTMS,998,DTIN,0,DTOUT,495*71
1112$GPGSA,A,3,03,06,11,16,18,19,22,24,,,,,1.1,0.5,1.0*33
1113$PGLOR,FIX,1.0*3E
1114$GPRMC,092454.00,A,4225.436371,N,00154.551971,E,037.0,061.8,200111,,*3E
1115$GPGGA,092455.00,4225.441308,N,00154.564256,E,1,08,0.5,1193.0,M,,M,,*47
1116$PGLOR,STA,092455.00,1.209,0.000,-1170,1,5,3,PWR,D,N*45
1117$PGLOR,SIO,TxERR,0,RxERR,0,TxCNT,124,RxCNT,1428,DTMS,1005,DTIN,1,DTOUT,495*4D
1118$GPGSA,A,3,03,06,11,16,18,19,22,24,,,,,1.1,0.5,1.0*33
1119$PGLOR,FIX,1.0*3E
1120$GPRMC,092455.00,A,4225.441308,N,00154.564256,E,037.2,061.7,200111,,*34
1121$GPGGA,092456.00,4225.446193,N,00154.576622,E,1,08,0.5,1193.0,M,,M,,*47
1122$PGLOR,STA,092456.00,1.209,0.000,-1170,1,5,3,PWR,D,N*46
1123$PGLOR,SIO,TxERR,0,RxERR,0,TxCNT,116,RxCNT,1192,DTMS,994,DTIN,0,DTOUT,495*79
1124$GPGSA,A,3,03,06,11,16,18,19,22,24,,,,,1.1,0.5,1.0*33
1125$PGLOR,FIX,1.0*3E
1126$GPRMC,092456.00,A,4225.446193,N,00154.576622,E,037.3,061.9,200111,,*3B
1127$GPGGA,092457.00,4225.451147,N,00154.588951,E,1,08,0.5,1193.0,M,,M,,*43
1128$PGLOR,STA,092457.00,1.209,0.000,-1169,1,5,3,PWR,D,N*4F
1129$PGLOR,SIO,TxERR,0,RxERR,0,TxCNT,112,RxCNT,1240,DTMS,1000,DTIN,1,DTOUT,495*45
1130$GPGSV,3,1,12,03,76,120,43,19,66,318,41,06,62,114,48,22,54,075,44*70
1131$GPGSV,3,2,12,18,26,048,47,16,24,178,44,24,22,255,35,11,19,269,38*7A
1132$GPGSV,3,3,12,14,10,118,,32,08,199,,08,07,310,,30,07,170,*71
1133$GPGSA,A,3,03,06,11,16,18,19,22,24,,,,,1.1,0.5,1.0*33
1134$PGLOR,FIX,1.0*3E
1135$GPRMC,092457.00,A,4225.451147,N,00154.588951,E,037.2,061.5,200111,,*32
1136$GPGGA,092458.00,4225.456098,N,00154.601377,E,1,08,0.5,1194.0,M,,M,,*43
1137$PGLOR,STA,092458.00,1.209,0.000,-1170,1,5,3,PWR,D,N*48
1138$PGLOR,SIO,TxERR,0,RxERR,0,TxCNT,96,RxCNT,1204,DTMS,1000,DTIN,0,DTOUT,495*79
1139$GPGSA,A,3,03,06,11,16,18,19,22,24,,,,,1.1,0.5,1.0*33
1140$PGLOR,FIX,1.0*3E
1141$GPRMC,092458.00,A,4225.456098,N,00154.601377,E,037.5,061.6,200111,,*31
1142$GPGGA,092459.00,4225.461137,N,00154.613851,E,1,08,0.5,1194.0,M,,M,,*4E
1143$PGLOR,STA,092459.00,1.209,0.000,-1169,1,5,3,PWR,D,N*41
1144$PGLOR,SIO,TxERR,0,RxERR,0,TxCNT,136,RxCNT,1432,DTMS,1000,DTIN,1,DTOUT,495*40
1145$GPGSA,A,3,03,06,11,16,18,19,22,24,,,,,1.1,0.5,1.0*33
1146$PGLOR,FIX,1.0*3E
1147$GPRMC,092459.00,A,4225.461137,N,00154.613851,E,037.7,061.3,200111,,*3B
1148$GPGGA,092500.00,4225.466122,N,00154.626437,E,1,08,0.5,1194.0,M,,M,,*4A
1149$PGLOR,STA,092500.00,1.209,0.000,-1169,1,5,3,PWR,D,N*4C
1150$PGLOR,SIO,TxERR,0,RxERR,0,TxCNT,96,RxCNT,1152,DTMS,1001,DTIN,0,DTOUT,495*78
1151$GPGSA,A,3,03,06,11,16,18,19,22,24,,,,,1.1,0.5,1.0*33
1152$PGLOR,FIX,1.0*3E
1153$GPRMC,092500.00,A,4225.466122,N,00154.626437,E,037.9,061.6,200111,,*34
1154$GPGGA,092501.00,4225.467217,N,00154.629506,E,1,08,0.5,1194.0,M,,M,,*43
1155$PGLOR,STA,092501.00,1.209,0.000,-1168,1,5,3,PWR,D,N*4C
1156$PGLOR,SIO,TxERR,0,RxERR,0,TxCNT,216,RxCNT,1528,DTMS,1005,DTIN,1,DTOUT,495*4E
1157$GPGSA,A,3,03,06,11,16,18,19,22,24,,,,,1.1,0.5,1.0*33
1158$PGLOR,FIX,1.0*3E
1159$GPRMC,092501.00,A,4225.467217,N,00154.629506,E,038.1,062.1,200111,,*3E
1160$GPGGA,092502.00,4225.472178,N,00154.642177,E,1,08,0.5,1194.0,M,,M,,*41
1161$PGLOR,STA,092502.00,1.209,0.000,-1168,1,5,3,PWR,D,N*4F
1162$PGLOR,SIO,TxERR,0,RxERR,0,TxCNT,240,RxCNT,1292,DTMS,996,DTIN,1,DTOUT,495*79
1163$GPGSV,3,1,12,03,76,120,43,19,66,318,41,06,62,114,48,22,54,075,44*70
1164$GPGSV,3,2,12,18,26,048,47,16,24,178,44,24,22,255,35,11,20,269,38*70
1165$GPGSV,3,3,12,14,10,118,,32,08,199,,30,07,170,,08,07,310,*71
1166$GPGSA,A,3,03,06,11,16,18,19,22,24,,,,,1.1,0.5,1.0*33
1167$PGLOR,FIX,1.0*3E
1168$GPRMC,092502.00,A,4225.472178,N,00154.642177,E,038.0,061.7,200111,,*38
1169$GPGGA,092503.00,4225.477091,N,00154.654844,E,1,08,0.5,1194.0,M,,M,,*4D
1170$PGLOR,STA,092503.00,1.209,0.000,-1168,1,5,3,PWR,D,N*4E
1171$PGLOR,SIO,TxERR,0,RxERR,0,TxCNT,112,RxCNT,1180,DTMS,1000,DTIN,1,DTOUT,495*4A
1172$GPGSA,A,3,03,06,11,16,18,19,22,24,,,,,1.1,0.5,1.0*33
1173$PGLOR,FIX,1.0*3E
1174$GPRMC,092503.00,A,4225.477091,N,00154.654844,E,038.0,062.3,200111,,*33
1175$GPGGA,092504.00,4225.482106,N,00154.667284,E,1,08,0.5,1194.0,M,,M,,*49
1176$PGLOR,STA,092504.00,1.209,0.000,-1168,1,5,3,PWR,D,N*49
1177$PGLOR,SIO,TxERR,0,RxERR,0,TxCNT,304,RxCNT,1288,DTMS,1004,DTIN,3,DTOUT,495*42
1178$GPGSA,A,3,03,06,11,14,16,18,19,22,24,,,,1.1,0.5,1.0*36
1179$PGLOR,FIX,1.0*3E
1180$GPRMC,092504.00,A,4225.482106,N,00154.667284,E,037.8,061.5,200111,,*35
1181$GPGGA,092505.00,4225.490835,N,00154.689284,E,1,08,1.0,1195.0,M,,M,,*47
1182$PGLOR,STA,092505.00,1.209,0.000,-1168,1,10,3,PWR,D,N*7C
1183$PGLOR,SIO,TxERR,0,RxERR,0,TxCNT,308,RxCNT,1272,DTMS,998,DTIN,2,DTOUT,495*77
1184$GPGSA,A,3,03,06,11,14,16,18,19,22,24,30,,,2.2,1.0,2.0*32
1185$PGLOR,FIX,1.0*3E
1186$GPRMC,092505.00,A,4225.490835,N,00154.689284,E,037.5,061.8,200111,,*3E
1187$GPGGA,092506.00,4225.495793,N,00154.701415,E,1,08,0.5,1195.0,M,,M,,*49
1188$PGLOR,STA,092506.00,1.209,0.000,-1168,1,5,3,PWR,D,N*4B
1189$PGLOR,SIO,TxERR,0,RxERR,0,TxCNT,132,RxCNT,1356,DTMS,999,DTIN,0,DTOUT,495*78
1190$GPGSA,A,3,03,06,11,14,16,18,19,22,24,30,,,1.1,0.5,1.0*35
1191$PGLOR,FIX,1.0*3E
1192$GPRMC,092506.00,A,4225.495793,N,00154.701415,E,036.9,061.3,200111,,*32
1193$GPGGA,092507.00,4225.500562,N,00154.713626,E,1,08,0.5,1195.0,M,,M,,*48
1194$PGLOR,STA,092507.00,1.209,0.000,-1168,1,5,3,PWR,D,N*4A
1195$PGLOR,SIO,TxERR,0,RxERR,0,TxCNT,160,RxCNT,1616,DTMS,1000,DTIN,1,DTOUT,495*47
1196$GPGSV,3,1,12,03,76,120,43,19,67,318,41,06,62,114,48,22,54,075,44*71
1197$GPGSV,3,2,12,18,26,048,47,16,24,178,44,24,22,255,35,11,20,269,38*70
1198$GPGSV,3,3,12,14,10,118,42,30,07,170,36,32,08,199,,08,07,310,*72
1199$GPGSA,A,3,03,06,11,14,16,18,19,22,24,30,,,1.1,0.5,1.0*35
1200$PGLOR,FIX,1.0*3E
1201$GPRMC,092507.00,A,4225.500562,N,00154.713626,E,036.8,062.2,200111,,*30
1202$GPGGA,092508.00,4225.505362,N,00154.725605,E,1,08,0.5,1195.0,M,,M,,*40
1203$PGLOR,STA,092508.00,1.209,0.000,-1167,1,5,3,PWR,D,N*4A
1204$PGLOR,SIO,TxERR,0,RxERR,0,TxCNT,116,RxCNT,1336,DTMS,998,DTIN,1,DTOUT,495*78
1205$GPGSA,A,3,03,06,11,14,16,18,19,22,24,30,,,1.1,0.5,1.0*35
1206$PGLOR,FIX,1.0*3E
1207$GPRMC,092508.00,A,4225.505362,N,00154.725605,E,036.3,061.7,200111,,*35
1208$GPGGA,092509.00,4225.510224,N,00154.737541,E,1,08,0.5,1195.0,M,,M,,*46
1209$PGLOR,STA,092509.00,1.209,0.000,-1168,1,5,3,PWR,D,N*44
1210$PGLOR,SIO,TxERR,0,RxERR,0,TxCNT,136,RxCNT,1680,DTMS,1011,DTIN,1,DTOUT,495*4B
1211$GPGSA,A,3,03,06,11,14,16,18,19,22,24,30,,,1.1,0.5,1.0*35
1212$PGLOR,FIX,1.0*3E
1213$GPRMC,092509.00,A,4225.510224,N,00154.737541,E,036.2,061.4,200111,,*31
1214$GPGGA,092510.00,4225.515024,N,00154.749221,E,1,08,0.5,1195.0,M,,M,,*41
1215$PGLOR,STA,092510.00,1.209,0.000,-1168,1,5,3,PWR,D,N*4C
1216$PGLOR,SIO,TxERR,0,RxERR,0,TxCNT,96,RxCNT,1208,DTMS,989,DTIN,0,DTOUT,495*4C
1217$GPGSA,A,3,03,06,11,14,16,18,19,22,24,30,,,1.1,0.5,1.0*35
1218$PGLOR,FIX,1.0*3E
1219$GPRMC,092510.00,A,4225.515024,N,00154.749221,E,035.5,061.1,200111,,*37
1220$GPGGA,092511.00,4225.519693,N,00154.760925,E,1,08,0.5,1195.0,M,,M,,*42
1221$PGLOR,STA,092511.00,1.209,0.000,-1167,1,5,3,PWR,D,N*42
1222$PGLOR,SIO,TxERR,0,RxERR,0,TxCNT,232,RxCNT,1296,DTMS,1000,DTIN,1,DTOUT,495*4F
1223$GPGSA,A,3,03,06,11,14,16,18,19,22,24,30,,,1.1,0.5,1.0*35
1224$PGLOR,FIX,1.0*3E
1225$GPRMC,092511.00,A,4225.519693,N,00154.760925,E,035.3,061.7,200111,,*34
1226$GPGGA,092512.00,4225.524355,N,00154.772576,E,1,08,0.5,1195.0,M,,M,,*49
1227$PGLOR,STA,092512.00,1.209,0.000,-1167,1,5,3,PWR,D,N*41
1228$PGLOR,SIO,TxERR,0,RxERR,0,TxCNT,200,RxCNT,1476,DTMS,1000,DTIN,1,DTOUT,495*46
1229$GPGSV,3,1,12,03,76,120,43,19,67,318,41,06,62,114,48,22,54,075,44*71
1230$GPGSV,3,2,12,18,26,048,47,16,24,178,44,24,22,255,27,11,20,269,38*73
1231$GPGSV,3,3,12,14,10,118,44,30,07,170,36,32,08,199,,08,07,310,*74
1232$GPGSA,A,3,03,06,11,14,16,18,19,22,24,30,,,1.1,0.5,1.0*35
1233$PGLOR,FIX,1.0*3E
1234$GPRMC,092512.00,A,4225.524355,N,00154.772576,E,035.2,061.6,200111,,*3F
1235$GPGGA,092513.00,4225.528878,N,00154.784126,E,1,08,0.5,1195.0,M,,M,,*48
1236$PGLOR,STA,092513.00,1.209,0.000,-1167,1,5,3,PWR,D,N*40
1237$PGLOR,SIO,TxERR,0,RxERR,0,TxCNT,212,RxCNT,1748,DTMS,1012,DTIN,1,DTOUT,495*48
1238$GPGSA,A,3,03,06,11,14,16,18,19,22,30,,,,1.1,0.5,1.0*33
1239$PGLOR,FIX,1.0*3E
1240$GPRMC,092513.00,A,4225.528878,N,00154.784126,E,034.6,062.0,200111,,*3E
1241$GPGGA,092514.00,4225.533349,N,00154.795523,E,1,05,0.5,1195.0,M,,M,,*40
1242$PGLOR,STA,092514.00,1.209,0.000,-1167,1,5,3,PWR,D,N*47